<?xml version="1.0" encoding="utf-8"?>
<gpx xmlns:xsi="http://www.w3.org/2001/XMLSchema-instance" xmlns:xsd="http://www.w3.org/2001/XMLSchema" version="1.1" creator="Shapelink.com" xmlns="http://www.topografix.com/GPX/1/1" xmlns:gpxtpx="http://www.garmin.com/xmlschemas/TrackPointExtension/v1">
  <metadata>
    <name>Längdskidåkning - Klassisk 11.58 km, 2011-01-25</name>
    <desc></desc>
    <author><name>Alexander Engvall</name></author> 
    <time>2011-01-25T18:48:58Z</time>
  </metadata>
  <trk>
    <name>Längdskidåkning - Klassisk 11.58 km, 2011-01-25</name>
    <trkseg>
      <trkpt lat="59.5226615" lon="17.8815855">
        <ele>36.6675</ele>
        <time>2011-01-25T18:48:58Z</time>
      </trkpt>
      <trkpt lat="59.5227602" lon="17.8815714">
        <ele>36.1868</ele>
        <time>2011-01-25T18:49:02Z</time>
      </trkpt>
      <trkpt lat="59.5228766" lon="17.881496">
        <ele>35.2255</ele>
        <time>2011-01-25T18:49:06Z</time>
      </trkpt>
      <trkpt lat="59.5230258" lon="17.8813218">
        <ele>35.2255</ele>
        <time>2011-01-25T18:49:11Z</time>
      </trkpt>
      <trkpt lat="59.523109" lon="17.8812217">
        <ele>35.2255</ele>
        <time>2011-01-25T18:49:15Z</time>
      </trkpt>
      <trkpt lat="59.5231584" lon="17.8811595">
        <ele>35.7061</ele>
        <time>2011-01-25T18:49:18Z</time>
      </trkpt>
      <trkpt lat="59.5232482" lon="17.881091">
        <ele>35.7061</ele>
        <time>2011-01-25T18:49:22Z</time>
      </trkpt>
      <trkpt lat="59.5233259" lon="17.8810241">
        <ele>36.6675</ele>
        <time>2011-01-25T18:49:26Z</time>
      </trkpt>
      <trkpt lat="59.5234065" lon="17.8809814">
        <ele>36.6675</ele>
        <time>2011-01-25T18:49:30Z</time>
      </trkpt>
      <trkpt lat="59.523536" lon="17.8808636">
        <ele>37.1481</ele>
        <time>2011-01-25T18:49:36Z</time>
      </trkpt>
      <trkpt lat="59.5236804" lon="17.8807796">
        <ele>37.6287</ele>
        <time>2011-01-25T18:49:41Z</time>
      </trkpt>
      <trkpt lat="59.5237928" lon="17.8807362">
        <ele>37.6287</ele>
        <time>2011-01-25T18:49:45Z</time>
      </trkpt>
      <trkpt lat="59.5239216" lon="17.8805883">
        <ele>38.1094</ele>
        <time>2011-01-25T18:49:49Z</time>
      </trkpt>
      <trkpt lat="59.5241119" lon="17.8803831">
        <ele>38.5901</ele>
        <time>2011-01-25T18:49:54Z</time>
      </trkpt>
      <trkpt lat="59.5242102" lon="17.8802751">
        <ele>40.0321</ele>
        <time>2011-01-25T18:49:58Z</time>
      </trkpt>
      <trkpt lat="59.5243062" lon="17.880196">
        <ele>39.5513</ele>
        <time>2011-01-25T18:50:03Z</time>
      </trkpt>
      <trkpt lat="59.5243966" lon="17.8801532">
        <ele>40.0321</ele>
        <time>2011-01-25T18:50:08Z</time>
      </trkpt>
      <trkpt lat="59.5245325" lon="17.880176">
        <ele>40.0321</ele>
        <time>2011-01-25T18:50:14Z</time>
      </trkpt>
      <trkpt lat="59.5246469" lon="17.8802111">
        <ele>40.5128</ele>
        <time>2011-01-25T18:50:18Z</time>
      </trkpt>
      <trkpt lat="59.5247544" lon="17.8802449">
        <ele>40.5128</ele>
        <time>2011-01-25T18:50:22Z</time>
      </trkpt>
      <trkpt lat="59.5248903" lon="17.8802891">
        <ele>38.1094</ele>
        <time>2011-01-25T18:50:26Z</time>
      </trkpt>
      <trkpt lat="59.5249982" lon="17.8803253">
        <ele>37.6287</ele>
        <time>2011-01-25T18:50:29Z</time>
      </trkpt>
      <trkpt lat="59.5251768" lon="17.8804385">
        <ele>36.6675</ele>
        <time>2011-01-25T18:50:34Z</time>
      </trkpt>
      <trkpt lat="59.5253298" lon="17.8804929">
        <ele>35.7061</ele>
        <time>2011-01-25T18:50:38Z</time>
      </trkpt>
      <trkpt lat="59.5255069" lon="17.880528">
        <ele>34.2642</ele>
        <time>2011-01-25T18:50:42Z</time>
      </trkpt>
      <trkpt lat="59.5256794" lon="17.8806005">
        <ele>31.8607</ele>
        <time>2011-01-25T18:50:46Z</time>
      </trkpt>
      <trkpt lat="59.5257721" lon="17.8806504">
        <ele>31.3801</ele>
        <time>2011-01-25T18:50:48Z</time>
      </trkpt>
      <trkpt lat="59.52601" lon="17.8807537">
        <ele>29.9381</ele>
        <time>2011-01-25T18:50:54Z</time>
      </trkpt>
      <trkpt lat="59.5260748" lon="17.8807716">
        <ele>29.4575</ele>
        <time>2011-01-25T18:50:56Z</time>
      </trkpt>
      <trkpt lat="59.526219" lon="17.8807343">
        <ele>30.4188</ele>
        <time>2011-01-25T18:51:02Z</time>
      </trkpt>
      <trkpt lat="59.5262585" lon="17.8807305">
        <ele>29.9381</ele>
        <time>2011-01-25T18:51:04Z</time>
      </trkpt>
      <trkpt lat="59.5263979" lon="17.8807533">
        <ele>28.9769</ele>
        <time>2011-01-25T18:51:08Z</time>
      </trkpt>
      <trkpt lat="59.5265977" lon="17.8808715">
        <ele>29.9381</ele>
        <time>2011-01-25T18:51:13Z</time>
      </trkpt>
      <trkpt lat="59.5266937" lon="17.8809782">
        <ele>30.4188</ele>
        <time>2011-01-25T18:51:15Z</time>
      </trkpt>
      <trkpt lat="59.5269124" lon="17.8813021">
        <ele>30.4188</ele>
        <time>2011-01-25T18:51:20Z</time>
      </trkpt>
      <trkpt lat="59.5269448" lon="17.8814821">
        <ele>30.8995</ele>
        <time>2011-01-25T18:51:24Z</time>
      </trkpt>
      <trkpt lat="59.5269598" lon="17.8816629">
        <ele>32.3416</ele>
        <time>2011-01-25T18:51:31Z</time>
      </trkpt>
      <trkpt lat="59.5269665" lon="17.8817076">
        <ele>32.3416</ele>
        <time>2011-01-25T18:51:34Z</time>
      </trkpt>
      <trkpt lat="59.5270024" lon="17.8818288">
        <ele>34.7449</ele>
        <time>2011-01-25T18:51:39Z</time>
      </trkpt>
      <trkpt lat="59.5270827" lon="17.8819793">
        <ele>35.7061</ele>
        <time>2011-01-25T18:51:45Z</time>
      </trkpt>
      <trkpt lat="59.5271402" lon="17.8820324">
        <ele>35.7061</ele>
        <time>2011-01-25T18:51:49Z</time>
      </trkpt>
      <trkpt lat="59.5272211" lon="17.8820376">
        <ele>35.2255</ele>
        <time>2011-01-25T18:51:54Z</time>
      </trkpt>
      <trkpt lat="59.5273087" lon="17.8819752">
        <ele>35.7061</ele>
        <time>2011-01-25T18:51:58Z</time>
      </trkpt>
      <trkpt lat="59.527428" lon="17.8818444">
        <ele>37.6287</ele>
        <time>2011-01-25T18:52:03Z</time>
      </trkpt>
      <trkpt lat="59.5275352" lon="17.8817024">
        <ele>40.5128</ele>
        <time>2011-01-25T18:52:07Z</time>
      </trkpt>
      <trkpt lat="59.5276601" lon="17.8815561">
        <ele>40.9934</ele>
        <time>2011-01-25T18:52:12Z</time>
      </trkpt>
      <trkpt lat="59.5277963" lon="17.8813614">
        <ele>42.4354</ele>
        <time>2011-01-25T18:52:18Z</time>
      </trkpt>
      <trkpt lat="59.5279533" lon="17.8813419">
        <ele>40.0321</ele>
        <time>2011-01-25T18:52:22Z</time>
      </trkpt>
      <trkpt lat="59.5281714" lon="17.8813197">
        <ele>37.6287</ele>
        <time>2011-01-25T18:52:27Z</time>
      </trkpt>
      <trkpt lat="59.5282114" lon="17.8813181">
        <ele>37.1481</ele>
        <time>2011-01-25T18:52:28Z</time>
      </trkpt>
      <trkpt lat="59.5283848" lon="17.88137">
        <ele>35.2255</ele>
        <time>2011-01-25T18:52:32Z</time>
      </trkpt>
      <trkpt lat="59.5284482" lon="17.8813528">
        <ele>34.2642</ele>
        <time>2011-01-25T18:52:34Z</time>
      </trkpt>
      <trkpt lat="59.5285911" lon="17.8813272">
        <ele>34.7449</ele>
        <time>2011-01-25T18:52:40Z</time>
      </trkpt>
      <trkpt lat="59.5287103" lon="17.8813969">
        <ele>32.3416</ele>
        <time>2011-01-25T18:52:45Z</time>
      </trkpt>
      <trkpt lat="59.5287367" lon="17.8814215">
        <ele>32.3416</ele>
        <time>2011-01-25T18:52:46Z</time>
      </trkpt>
      <trkpt lat="59.5289171" lon="17.8815126">
        <ele>31.8607</ele>
        <time>2011-01-25T18:52:51Z</time>
      </trkpt>
      <trkpt lat="59.5290841" lon="17.881616">
        <ele>30.8995</ele>
        <time>2011-01-25T18:52:55Z</time>
      </trkpt>
      <trkpt lat="59.5291657" lon="17.8816592">
        <ele>31.8607</ele>
        <time>2011-01-25T18:52:57Z</time>
      </trkpt>
      <trkpt lat="59.5293239" lon="17.8817486">
        <ele>33.3029</ele>
        <time>2011-01-25T18:53:01Z</time>
      </trkpt>
      <trkpt lat="59.529457" lon="17.8818681">
        <ele>32.8223</ele>
        <time>2011-01-25T18:53:06Z</time>
      </trkpt>
      <trkpt lat="59.5295775" lon="17.8820226">
        <ele>30.8995</ele>
        <time>2011-01-25T18:53:11Z</time>
      </trkpt>
      <trkpt lat="59.5296836" lon="17.8821086">
        <ele>29.4575</ele>
        <time>2011-01-25T18:53:16Z</time>
      </trkpt>
      <trkpt lat="59.5297686" lon="17.8821979">
        <ele>29.9381</ele>
        <time>2011-01-25T18:53:20Z</time>
      </trkpt>
      <trkpt lat="59.5298214" lon="17.8822923">
        <ele>30.4188</ele>
        <time>2011-01-25T18:53:23Z</time>
      </trkpt>
      <trkpt lat="59.5299504" lon="17.8825165">
        <ele>35.7061</ele>
        <time>2011-01-25T18:53:29Z</time>
      </trkpt>
      <trkpt lat="59.5300704" lon="17.8826141">
        <ele>38.5901</ele>
        <time>2011-01-25T18:53:33Z</time>
      </trkpt>
      <trkpt lat="59.5302384" lon="17.8826859">
        <ele>37.6287</ele>
        <time>2011-01-25T18:53:37Z</time>
      </trkpt>
      <trkpt lat="59.5303555" lon="17.8827561">
        <ele>36.6675</ele>
        <time>2011-01-25T18:53:39Z</time>
      </trkpt>
      <trkpt lat="59.5306502" lon="17.8831571">
        <ele>33.3029</ele>
        <time>2011-01-25T18:53:43Z</time>
      </trkpt>
      <trkpt lat="59.5307201" lon="17.8832989">
        <ele>32.3416</ele>
        <time>2011-01-25T18:53:44Z</time>
      </trkpt>
      <trkpt lat="59.5307778" lon="17.8834383">
        <ele>31.8607</ele>
        <time>2011-01-25T18:53:45Z</time>
      </trkpt>
      <trkpt lat="59.5308293" lon="17.8835673">
        <ele>31.3801</ele>
        <time>2011-01-25T18:53:46Z</time>
      </trkpt>
      <trkpt lat="59.5310672" lon="17.883882">
        <ele>28.4962</ele>
        <time>2011-01-25T18:53:50Z</time>
      </trkpt>
      <trkpt lat="59.5313173" lon="17.8837194">
        <ele>24.1703</ele>
        <time>2011-01-25T18:53:53Z</time>
      </trkpt>
      <trkpt lat="59.5314432" lon="17.8835253">
        <ele>22.2476</ele>
        <time>2011-01-25T18:53:55Z</time>
      </trkpt>
      <trkpt lat="59.5315468" lon="17.883333">
        <ele>21.767</ele>
        <time>2011-01-25T18:53:57Z</time>
      </trkpt>
      <trkpt lat="59.5317002" lon="17.8829325">
        <ele>19.8444</ele>
        <time>2011-01-25T18:54:01Z</time>
      </trkpt>
      <trkpt lat="59.5317869" lon="17.8825239">
        <ele>19.8444</ele>
        <time>2011-01-25T18:54:06Z</time>
      </trkpt>
      <trkpt lat="59.5318848" lon="17.8821602">
        <ele>22.7283</ele>
        <time>2011-01-25T18:54:13Z</time>
      </trkpt>
      <trkpt lat="59.5319343" lon="17.8820151">
        <ele>25.6123</ele>
        <time>2011-01-25T18:54:18Z</time>
      </trkpt>
      <trkpt lat="59.5319671" lon="17.8819123">
        <ele>27.5349</ele>
        <time>2011-01-25T18:54:23Z</time>
      </trkpt>
      <trkpt lat="59.5320401" lon="17.8817597">
        <ele>28.0155</ele>
        <time>2011-01-25T18:54:28Z</time>
      </trkpt>
      <trkpt lat="59.5321394" lon="17.8815113">
        <ele>29.4575</ele>
        <time>2011-01-25T18:54:34Z</time>
      </trkpt>
      <trkpt lat="59.5322379" lon="17.8812262">
        <ele>30.8995</ele>
        <time>2011-01-25T18:54:39Z</time>
      </trkpt>
      <trkpt lat="59.5323396" lon="17.8809929">
        <ele>29.9381</ele>
        <time>2011-01-25T18:54:43Z</time>
      </trkpt>
      <trkpt lat="59.532411" lon="17.8807701">
        <ele>30.8995</ele>
        <time>2011-01-25T18:54:47Z</time>
      </trkpt>
      <trkpt lat="59.5324639" lon="17.8806139">
        <ele>30.4188</ele>
        <time>2011-01-25T18:54:51Z</time>
      </trkpt>
      <trkpt lat="59.5325638" lon="17.8804246">
        <ele>30.8995</ele>
        <time>2011-01-25T18:54:55Z</time>
      </trkpt>
      <trkpt lat="59.5327108" lon="17.8801257">
        <ele>30.4188</ele>
        <time>2011-01-25T18:55:01Z</time>
      </trkpt>
      <trkpt lat="59.5328036" lon="17.8798712">
        <ele>33.7834</ele>
        <time>2011-01-25T18:55:06Z</time>
      </trkpt>
      <trkpt lat="59.5328905" lon="17.8795827">
        <ele>32.3416</ele>
        <time>2011-01-25T18:55:11Z</time>
      </trkpt>
      <trkpt lat="59.53293" lon="17.8793579">
        <ele>31.8607</ele>
        <time>2011-01-25T18:55:14Z</time>
      </trkpt>
      <trkpt lat="59.5329653" lon="17.8790388">
        <ele>29.9381</ele>
        <time>2011-01-25T18:55:18Z</time>
      </trkpt>
      <trkpt lat="59.5329869" lon="17.8787834">
        <ele>28.9769</ele>
        <time>2011-01-25T18:55:21Z</time>
      </trkpt>
      <trkpt lat="59.5330267" lon="17.8786517">
        <ele>27.5349</ele>
        <time>2011-01-25T18:55:23Z</time>
      </trkpt>
      <trkpt lat="59.5331339" lon="17.8783167">
        <ele>26.0929</ele>
        <time>2011-01-25T18:55:29Z</time>
      </trkpt>
      <trkpt lat="59.5332101" lon="17.8781658">
        <ele>25.1317</ele>
        <time>2011-01-25T18:55:33Z</time>
      </trkpt>
      <trkpt lat="59.5332566" lon="17.8780076">
        <ele>24.651</ele>
        <time>2011-01-25T18:55:37Z</time>
      </trkpt>
      <trkpt lat="59.5333283" lon="17.8777867">
        <ele>22.7283</ele>
        <time>2011-01-25T18:55:41Z</time>
      </trkpt>
      <trkpt lat="59.5334807" lon="17.8775113">
        <ele>21.767</ele>
        <time>2011-01-25T18:55:45Z</time>
      </trkpt>
      <trkpt lat="59.5335293" lon="17.8774422">
        <ele>20.8057</ele>
        <time>2011-01-25T18:55:46Z</time>
      </trkpt>
      <trkpt lat="59.5337007" lon="17.8771394">
        <ele>24.651</ele>
        <time>2011-01-25T18:55:51Z</time>
      </trkpt>
      <trkpt lat="59.5337996" lon="17.8770181">
        <ele>27.0543</ele>
        <time>2011-01-25T18:55:55Z</time>
      </trkpt>
      <trkpt lat="59.5340114" lon="17.8768694">
        <ele>27.0543</ele>
        <time>2011-01-25T18:56:01Z</time>
      </trkpt>
      <trkpt lat="59.5341922" lon="17.8768469">
        <ele>24.651</ele>
        <time>2011-01-25T18:56:06Z</time>
      </trkpt>
      <trkpt lat="59.5344189" lon="17.8767839">
        <ele>24.651</ele>
        <time>2011-01-25T18:56:12Z</time>
      </trkpt>
      <trkpt lat="59.5345512" lon="17.8766518">
        <ele>25.1317</ele>
        <time>2011-01-25T18:56:17Z</time>
      </trkpt>
      <trkpt lat="59.5346228" lon="17.8766011">
        <ele>24.651</ele>
        <time>2011-01-25T18:56:21Z</time>
      </trkpt>
      <trkpt lat="59.5347397" lon="17.8764914">
        <ele>25.1317</ele>
        <time>2011-01-25T18:56:26Z</time>
      </trkpt>
      <trkpt lat="59.5349096" lon="17.8763804">
        <ele>25.6123</ele>
        <time>2011-01-25T18:56:31Z</time>
      </trkpt>
      <trkpt lat="59.535035" lon="17.8762553">
        <ele>25.6123</ele>
        <time>2011-01-25T18:56:34Z</time>
      </trkpt>
      <trkpt lat="59.5351534" lon="17.8761657">
        <ele>26.0929</ele>
        <time>2011-01-25T18:56:38Z</time>
      </trkpt>
      <trkpt lat="59.5353242" lon="17.87621">
        <ele>23.209</ele>
        <time>2011-01-25T18:56:43Z</time>
      </trkpt>
      <trkpt lat="59.5354921" lon="17.876288">
        <ele>22.2476</ele>
        <time>2011-01-25T18:56:46Z</time>
      </trkpt>
      <trkpt lat="59.5358037" lon="17.8762955">
        <ele>20.8057</ele>
        <time>2011-01-25T18:56:51Z</time>
      </trkpt>
      <trkpt lat="59.5359251" lon="17.8762939">
        <ele>20.8057</ele>
        <time>2011-01-25T18:56:53Z</time>
      </trkpt>
      <trkpt lat="59.5361348" lon="17.8761595">
        <ele>20.325</ele>
        <time>2011-01-25T18:56:57Z</time>
      </trkpt>
      <trkpt lat="59.5361643" lon="17.8760573">
        <ele>20.325</ele>
        <time>2011-01-25T18:56:58Z</time>
      </trkpt>
      <trkpt lat="59.5362731" lon="17.8755925">
        <ele>21.767</ele>
        <time>2011-01-25T18:57:03Z</time>
      </trkpt>
      <trkpt lat="59.5363378" lon="17.8753118">
        <ele>21.2864</ele>
        <time>2011-01-25T18:57:07Z</time>
      </trkpt>
      <trkpt lat="59.5364258" lon="17.8747971">
        <ele>20.8057</ele>
        <time>2011-01-25T18:57:14Z</time>
      </trkpt>
      <trkpt lat="59.5364352" lon="17.8747298">
        <ele>20.325</ele>
        <time>2011-01-25T18:57:15Z</time>
      </trkpt>
      <trkpt lat="59.5364892" lon="17.8744499">
        <ele>18.8831</ele>
        <time>2011-01-25T18:57:20Z</time>
      </trkpt>
      <trkpt lat="59.5365312" lon="17.8742268">
        <ele>17.9218</ele>
        <time>2011-01-25T18:57:25Z</time>
      </trkpt>
      <trkpt lat="59.536539" lon="17.8741213">
        <ele>17.9218</ele>
        <time>2011-01-25T18:57:28Z</time>
      </trkpt>
      <trkpt lat="59.5365172" lon="17.8739736">
        <ele>19.3638</ele>
        <time>2011-01-25T18:57:33Z</time>
      </trkpt>
      <trkpt lat="59.5365198" lon="17.8739438">
        <ele>20.325</ele>
        <time>2011-01-25T18:57:34Z</time>
      </trkpt>
      <trkpt lat="59.536496" lon="17.8737573">
        <ele>22.2476</ele>
        <time>2011-01-25T18:57:40Z</time>
      </trkpt>
      <trkpt lat="59.5364664" lon="17.8736063">
        <ele>22.7283</ele>
        <time>2011-01-25T18:57:44Z</time>
      </trkpt>
      <trkpt lat="59.5363792" lon="17.8734201">
        <ele>23.209</ele>
        <time>2011-01-25T18:57:49Z</time>
      </trkpt>
      <trkpt lat="59.5363606" lon="17.8733951">
        <ele>22.7283</ele>
        <time>2011-01-25T18:57:50Z</time>
      </trkpt>
      <trkpt lat="59.536248" lon="17.8732543">
        <ele>22.2476</ele>
        <time>2011-01-25T18:57:54Z</time>
      </trkpt>
      <trkpt lat="59.5361016" lon="17.8730579">
        <ele>24.1703</ele>
        <time>2011-01-25T18:57:59Z</time>
      </trkpt>
      <trkpt lat="59.535975" lon="17.8729367">
        <ele>25.6123</ele>
        <time>2011-01-25T18:58:04Z</time>
      </trkpt>
      <trkpt lat="59.5358592" lon="17.872808">
        <ele>25.1317</ele>
        <time>2011-01-25T18:58:08Z</time>
      </trkpt>
      <trkpt lat="59.5357814" lon="17.8727238">
        <ele>25.6123</ele>
        <time>2011-01-25T18:58:11Z</time>
      </trkpt>
      <trkpt lat="59.5356827" lon="17.8724958">
        <ele>24.651</ele>
        <time>2011-01-25T18:58:17Z</time>
      </trkpt>
      <trkpt lat="59.5355915" lon="17.8723182">
        <ele>24.651</ele>
        <time>2011-01-25T18:58:22Z</time>
      </trkpt>
      <trkpt lat="59.5355426" lon="17.872212">
        <ele>24.1703</ele>
        <time>2011-01-25T18:58:25Z</time>
      </trkpt>
      <trkpt lat="59.5354309" lon="17.872032">
        <ele>22.7283</ele>
        <time>2011-01-25T18:58:29Z</time>
      </trkpt>
      <trkpt lat="59.5353347" lon="17.8718794">
        <ele>21.767</ele>
        <time>2011-01-25T18:58:32Z</time>
      </trkpt>
      <trkpt lat="59.535228" lon="17.8717276">
        <ele>21.2864</ele>
        <time>2011-01-25T18:58:36Z</time>
      </trkpt>
      <trkpt lat="59.535137" lon="17.8715157">
        <ele>20.8057</ele>
        <time>2011-01-25T18:58:41Z</time>
      </trkpt>
      <trkpt lat="59.5350725" lon="17.8713282">
        <ele>21.2864</ele>
        <time>2011-01-25T18:58:45Z</time>
      </trkpt>
      <trkpt lat="59.5350702" lon="17.8712742">
        <ele>21.767</ele>
        <time>2011-01-25T18:58:46Z</time>
      </trkpt>
      <trkpt lat="59.5349915" lon="17.8710516">
        <ele>23.209</ele>
        <time>2011-01-25T18:58:51Z</time>
      </trkpt>
      <trkpt lat="59.5349052" lon="17.8709732">
        <ele>24.1703</ele>
        <time>2011-01-25T18:58:54Z</time>
      </trkpt>
      <trkpt lat="59.5348076" lon="17.8707763">
        <ele>25.6123</ele>
        <time>2011-01-25T18:58:59Z</time>
      </trkpt>
      <trkpt lat="59.5347705" lon="17.8706993">
        <ele>25.6123</ele>
        <time>2011-01-25T18:59:01Z</time>
      </trkpt>
      <trkpt lat="59.5347316" lon="17.870632">
        <ele>25.1317</ele>
        <time>2011-01-25T18:59:03Z</time>
      </trkpt>
      <trkpt lat="59.5346178" lon="17.8704604">
        <ele>26.0929</ele>
        <time>2011-01-25T18:59:08Z</time>
      </trkpt>
      <trkpt lat="59.5344742" lon="17.8703721">
        <ele>26.5736</ele>
        <time>2011-01-25T18:59:13Z</time>
      </trkpt>
      <trkpt lat="59.534311" lon="17.8703627">
        <ele>26.5736</ele>
        <time>2011-01-25T18:59:18Z</time>
      </trkpt>
      <trkpt lat="59.5341022" lon="17.870256">
        <ele>26.5736</ele>
        <time>2011-01-25T18:59:23Z</time>
      </trkpt>
      <trkpt lat="59.5338899" lon="17.8701017">
        <ele>26.5736</ele>
        <time>2011-01-25T18:59:29Z</time>
      </trkpt>
      <trkpt lat="59.5337812" lon="17.8699995">
        <ele>26.5736</ele>
        <time>2011-01-25T18:59:33Z</time>
      </trkpt>
      <trkpt lat="59.5336711" lon="17.8698512">
        <ele>26.5736</ele>
        <time>2011-01-25T18:59:38Z</time>
      </trkpt>
      <trkpt lat="59.5336019" lon="17.8695712">
        <ele>24.1703</ele>
        <time>2011-01-25T18:59:44Z</time>
      </trkpt>
      <trkpt lat="59.5335489" lon="17.8693923">
        <ele>23.6896</ele>
        <time>2011-01-25T18:59:48Z</time>
      </trkpt>
      <trkpt lat="59.5334721" lon="17.8691634">
        <ele>23.209</ele>
        <time>2011-01-25T18:59:53Z</time>
      </trkpt>
      <trkpt lat="59.533419" lon="17.8690089">
        <ele>22.2476</ele>
        <time>2011-01-25T18:59:56Z</time>
      </trkpt>
      <trkpt lat="59.533337" lon="17.868706">
        <ele>21.767</ele>
        <time>2011-01-25T19:00:02Z</time>
      </trkpt>
      <trkpt lat="59.5332476" lon="17.8685289">
        <ele>21.767</ele>
        <time>2011-01-25T19:00:06Z</time>
      </trkpt>
      <trkpt lat="59.533233" lon="17.8684643">
        <ele>21.767</ele>
        <time>2011-01-25T19:00:07Z</time>
      </trkpt>
      <trkpt lat="59.5331635" lon="17.8680922">
        <ele>20.8057</ele>
        <time>2011-01-25T19:00:12Z</time>
      </trkpt>
      <trkpt lat="59.5330546" lon="17.8677589">
        <ele>19.8444</ele>
        <time>2011-01-25T19:00:17Z</time>
      </trkpt>
      <trkpt lat="59.5329579" lon="17.8674375">
        <ele>17.9218</ele>
        <time>2011-01-25T19:00:22Z</time>
      </trkpt>
      <trkpt lat="59.5328999" lon="17.8671956">
        <ele>17.4412</ele>
        <time>2011-01-25T19:00:26Z</time>
      </trkpt>
      <trkpt lat="59.5328479" lon="17.8669656">
        <ele>16.4797</ele>
        <time>2011-01-25T19:00:30Z</time>
      </trkpt>
      <trkpt lat="59.532782" lon="17.8667791">
        <ele>15.999</ele>
        <time>2011-01-25T19:00:34Z</time>
      </trkpt>
      <trkpt lat="59.5327144" lon="17.8665703">
        <ele>15.0377</ele>
        <time>2011-01-25T19:00:38Z</time>
      </trkpt>
      <trkpt lat="59.5326772" lon="17.8664232">
        <ele>14.557</ele>
        <time>2011-01-25T19:00:41Z</time>
      </trkpt>
      <trkpt lat="59.5326083" lon="17.866188">
        <ele>15.999</ele>
        <time>2011-01-25T19:00:46Z</time>
      </trkpt>
      <trkpt lat="59.5325674" lon="17.8660309">
        <ele>15.999</ele>
        <time>2011-01-25T19:00:49Z</time>
      </trkpt>
      <trkpt lat="59.5325227" lon="17.8658005">
        <ele>16.9604</ele>
        <time>2011-01-25T19:00:53Z</time>
      </trkpt>
      <trkpt lat="59.5325" lon="17.8655576">
        <ele>17.4412</ele>
        <time>2011-01-25T19:00:57Z</time>
      </trkpt>
      <trkpt lat="59.5324654" lon="17.8653049">
        <ele>17.9218</ele>
        <time>2011-01-25T19:01:01Z</time>
      </trkpt>
      <trkpt lat="59.532432" lon="17.8650195">
        <ele>19.8444</ele>
        <time>2011-01-25T19:01:05Z</time>
      </trkpt>
      <trkpt lat="59.532415" lon="17.8647768">
        <ele>22.2476</ele>
        <time>2011-01-25T19:01:09Z</time>
      </trkpt>
      <trkpt lat="59.532401" lon="17.8645827">
        <ele>24.1703</ele>
        <time>2011-01-25T19:01:13Z</time>
      </trkpt>
      <trkpt lat="59.5323636" lon="17.864302">
        <ele>24.651</ele>
        <time>2011-01-25T19:01:19Z</time>
      </trkpt>
      <trkpt lat="59.5323453" lon="17.864087">
        <ele>24.1703</ele>
        <time>2011-01-25T19:01:23Z</time>
      </trkpt>
      <trkpt lat="59.5323336" lon="17.8638563">
        <ele>23.6896</ele>
        <time>2011-01-25T19:01:28Z</time>
      </trkpt>
      <trkpt lat="59.5322961" lon="17.8636063">
        <ele>24.1703</ele>
        <time>2011-01-25T19:01:33Z</time>
      </trkpt>
      <trkpt lat="59.5322861" lon="17.8634613">
        <ele>24.651</ele>
        <time>2011-01-25T19:01:36Z</time>
      </trkpt>
      <trkpt lat="59.5322623" lon="17.8632716">
        <ele>26.0929</ele>
        <time>2011-01-25T19:01:40Z</time>
      </trkpt>
      <trkpt lat="59.5322369" lon="17.8630877">
        <ele>26.5736</ele>
        <time>2011-01-25T19:01:45Z</time>
      </trkpt>
      <trkpt lat="59.5322291" lon="17.8630497">
        <ele>25.6123</ele>
        <time>2011-01-25T19:01:46Z</time>
      </trkpt>
      <trkpt lat="59.5321601" lon="17.8628147">
        <ele>24.1703</ele>
        <time>2011-01-25T19:01:51Z</time>
      </trkpt>
      <trkpt lat="59.5321025" lon="17.8626022">
        <ele>25.1317</ele>
        <time>2011-01-25T19:01:56Z</time>
      </trkpt>
      <trkpt lat="59.5320459" lon="17.862333">
        <ele>27.0543</ele>
        <time>2011-01-25T19:02:01Z</time>
      </trkpt>
      <trkpt lat="59.5319941" lon="17.862046">
        <ele>28.0155</ele>
        <time>2011-01-25T19:02:06Z</time>
      </trkpt>
      <trkpt lat="59.5319168" lon="17.8617715">
        <ele>27.5349</ele>
        <time>2011-01-25T19:02:11Z</time>
      </trkpt>
      <trkpt lat="59.5318903" lon="17.8616865">
        <ele>27.0543</ele>
        <time>2011-01-25T19:02:13Z</time>
      </trkpt>
      <trkpt lat="59.5318939" lon="17.8613784">
        <ele>26.0929</ele>
        <time>2011-01-25T19:02:19Z</time>
      </trkpt>
      <trkpt lat="59.5318867" lon="17.8610668">
        <ele>27.0543</ele>
        <time>2011-01-25T19:02:24Z</time>
      </trkpt>
      <trkpt lat="59.5318878" lon="17.8609934">
        <ele>26.5736</ele>
        <time>2011-01-25T19:02:25Z</time>
      </trkpt>
      <trkpt lat="59.531842" lon="17.8608383">
        <ele>26.5736</ele>
        <time>2011-01-25T19:02:28Z</time>
      </trkpt>
      <trkpt lat="59.5317736" lon="17.860563">
        <ele>29.9381</ele>
        <time>2011-01-25T19:02:33Z</time>
      </trkpt>
      <trkpt lat="59.5317173" lon="17.8603609">
        <ele>31.3801</ele>
        <time>2011-01-25T19:02:37Z</time>
      </trkpt>
      <trkpt lat="59.5316275" lon="17.8601489">
        <ele>32.3416</ele>
        <time>2011-01-25T19:02:42Z</time>
      </trkpt>
      <trkpt lat="59.5315454" lon="17.8599767">
        <ele>32.8223</ele>
        <time>2011-01-25T19:02:46Z</time>
      </trkpt>
      <trkpt lat="59.5314858" lon="17.8599202">
        <ele>32.3416</ele>
        <time>2011-01-25T19:02:48Z</time>
      </trkpt>
      <trkpt lat="59.5314084" lon="17.8598257">
        <ele>31.3801</ele>
        <time>2011-01-25T19:02:51Z</time>
      </trkpt>
      <trkpt lat="59.5313061" lon="17.8596506">
        <ele>30.8995</ele>
        <time>2011-01-25T19:02:56Z</time>
      </trkpt>
      <trkpt lat="59.5312672" lon="17.8595938">
        <ele>30.4188</ele>
        <time>2011-01-25T19:02:58Z</time>
      </trkpt>
      <trkpt lat="59.5311614" lon="17.8594128">
        <ele>31.3801</ele>
        <time>2011-01-25T19:03:04Z</time>
      </trkpt>
      <trkpt lat="59.531067" lon="17.8592603">
        <ele>31.8607</ele>
        <time>2011-01-25T19:03:09Z</time>
      </trkpt>
      <trkpt lat="59.5310339" lon="17.8591753">
        <ele>31.3801</ele>
        <time>2011-01-25T19:03:11Z</time>
      </trkpt>
      <trkpt lat="59.5310165" lon="17.8589457">
        <ele>32.8223</ele>
        <time>2011-01-25T19:03:15Z</time>
      </trkpt>
      <trkpt lat="59.5310238" lon="17.8587814">
        <ele>34.2642</ele>
        <time>2011-01-25T19:03:18Z</time>
      </trkpt>
      <trkpt lat="59.5310342" lon="17.8584931">
        <ele>37.1481</ele>
        <time>2011-01-25T19:03:23Z</time>
      </trkpt>
      <trkpt lat="59.5310433" lon="17.8583328">
        <ele>38.1094</ele>
        <time>2011-01-25T19:03:26Z</time>
      </trkpt>
      <trkpt lat="59.5310516" lon="17.8580844">
        <ele>40.9934</ele>
        <time>2011-01-25T19:03:31Z</time>
      </trkpt>
      <trkpt lat="59.531049" lon="17.8579046">
        <ele>41.474</ele>
        <time>2011-01-25T19:03:34Z</time>
      </trkpt>
      <trkpt lat="59.5310211" lon="17.8577098">
        <ele>41.474</ele>
        <time>2011-01-25T19:03:39Z</time>
      </trkpt>
      <trkpt lat="59.5309988" lon="17.8575341">
        <ele>42.4354</ele>
        <time>2011-01-25T19:03:43Z</time>
      </trkpt>
      <trkpt lat="59.5309327" lon="17.8572606">
        <ele>44.8386</ele>
        <time>2011-01-25T19:04:03Z</time>
      </trkpt>
      <trkpt lat="59.5308948" lon="17.8570221">
        <ele>42.916</ele>
        <time>2011-01-25T19:04:08Z</time>
      </trkpt>
      <trkpt lat="59.5308641" lon="17.8568073">
        <ele>43.8773</ele>
        <time>2011-01-25T19:04:12Z</time>
      </trkpt>
      <trkpt lat="59.5308119" lon="17.8566011">
        <ele>42.916</ele>
        <time>2011-01-25T19:04:16Z</time>
      </trkpt>
      <trkpt lat="59.5307207" lon="17.8563448">
        <ele>40.9934</ele>
        <time>2011-01-25T19:04:21Z</time>
      </trkpt>
      <trkpt lat="59.5306742" lon="17.8561538">
        <ele>40.5128</ele>
        <time>2011-01-25T19:04:24Z</time>
      </trkpt>
      <trkpt lat="59.5306503" lon="17.8559345">
        <ele>40.0321</ele>
        <time>2011-01-25T19:04:29Z</time>
      </trkpt>
      <trkpt lat="59.5306185" lon="17.8557501">
        <ele>39.0707</ele>
        <time>2011-01-25T19:04:33Z</time>
      </trkpt>
      <trkpt lat="59.5305514" lon="17.8556437">
        <ele>39.0707</ele>
        <time>2011-01-25T19:04:37Z</time>
      </trkpt>
      <trkpt lat="59.5305293" lon="17.8556321">
        <ele>39.0707</ele>
        <time>2011-01-25T19:04:38Z</time>
      </trkpt>
      <trkpt lat="59.5304073" lon="17.8556138">
        <ele>41.9547</ele>
        <time>2011-01-25T19:04:43Z</time>
      </trkpt>
      <trkpt lat="59.5303177" lon="17.8555796">
        <ele>40.9934</ele>
        <time>2011-01-25T19:04:46Z</time>
      </trkpt>
      <trkpt lat="59.5301738" lon="17.8553707">
        <ele>40.5128</ele>
        <time>2011-01-25T19:04:53Z</time>
      </trkpt>
      <trkpt lat="59.5301114" lon="17.8551744">
        <ele>39.0707</ele>
        <time>2011-01-25T19:04:57Z</time>
      </trkpt>
      <trkpt lat="59.5300109" lon="17.8549125">
        <ele>39.5513</ele>
        <time>2011-01-25T19:05:01Z</time>
      </trkpt>
      <trkpt lat="59.5298306" lon="17.8546499">
        <ele>38.5901</ele>
        <time>2011-01-25T19:05:05Z</time>
      </trkpt>
      <trkpt lat="59.5296084" lon="17.854107">
        <ele>36.6675</ele>
        <time>2011-01-25T19:05:11Z</time>
      </trkpt>
      <trkpt lat="59.5294676" lon="17.8537517">
        <ele>35.7061</ele>
        <time>2011-01-25T19:05:15Z</time>
      </trkpt>
      <trkpt lat="59.5293672" lon="17.8534859">
        <ele>35.2255</ele>
        <time>2011-01-25T19:05:19Z</time>
      </trkpt>
      <trkpt lat="59.5292341" lon="17.8530747">
        <ele>35.7061</ele>
        <time>2011-01-25T19:05:24Z</time>
      </trkpt>
      <trkpt lat="59.5292178" lon="17.852867">
        <ele>33.7834</ele>
        <time>2011-01-25T19:05:27Z</time>
      </trkpt>
      <trkpt lat="59.5290967" lon="17.852501">
        <ele>35.2255</ele>
        <time>2011-01-25T19:05:32Z</time>
      </trkpt>
      <trkpt lat="59.5289574" lon="17.8524068">
        <ele>35.2255</ele>
        <time>2011-01-25T19:05:36Z</time>
      </trkpt>
      <trkpt lat="59.5288396" lon="17.852411">
        <ele>34.7449</ele>
        <time>2011-01-25T19:05:40Z</time>
      </trkpt>
      <trkpt lat="59.5288122" lon="17.8524288">
        <ele>35.2255</ele>
        <time>2011-01-25T19:05:41Z</time>
      </trkpt>
      <trkpt lat="59.528657" lon="17.8524768">
        <ele>38.5901</ele>
        <time>2011-01-25T19:05:46Z</time>
      </trkpt>
      <trkpt lat="59.5284791" lon="17.8523891">
        <ele>40.5128</ele>
        <time>2011-01-25T19:05:52Z</time>
      </trkpt>
      <trkpt lat="59.5283684" lon="17.8522753">
        <ele>42.4354</ele>
        <time>2011-01-25T19:05:56Z</time>
      </trkpt>
      <trkpt lat="59.5282466" lon="17.8521889">
        <ele>42.4354</ele>
        <time>2011-01-25T19:06:00Z</time>
      </trkpt>
      <trkpt lat="59.528156" lon="17.8520926">
        <ele>42.4354</ele>
        <time>2011-01-25T19:06:04Z</time>
      </trkpt>
      <trkpt lat="59.5280445" lon="17.8519335">
        <ele>39.5513</ele>
        <time>2011-01-25T19:06:08Z</time>
      </trkpt>
      <trkpt lat="59.5279649" lon="17.8517385">
        <ele>38.1094</ele>
        <time>2011-01-25T19:06:13Z</time>
      </trkpt>
      <trkpt lat="59.527868" lon="17.8515316">
        <ele>35.7061</ele>
        <time>2011-01-25T19:06:18Z</time>
      </trkpt>
      <trkpt lat="59.5277909" lon="17.8513427">
        <ele>34.2642</ele>
        <time>2011-01-25T19:06:23Z</time>
      </trkpt>
      <trkpt lat="59.5277038" lon="17.8511848">
        <ele>33.7834</ele>
        <time>2011-01-25T19:06:27Z</time>
      </trkpt>
      <trkpt lat="59.5275804" lon="17.8509756">
        <ele>35.2255</ele>
        <time>2011-01-25T19:06:33Z</time>
      </trkpt>
      <trkpt lat="59.5275609" lon="17.8509547">
        <ele>35.7061</ele>
        <time>2011-01-25T19:06:34Z</time>
      </trkpt>
      <trkpt lat="59.5275143" lon="17.8507623">
        <ele>38.1094</ele>
        <time>2011-01-25T19:06:40Z</time>
      </trkpt>
      <trkpt lat="59.527524" lon="17.8506336">
        <ele>39.5513</ele>
        <time>2011-01-25T19:06:43Z</time>
      </trkpt>
      <trkpt lat="59.527526" lon="17.8505493">
        <ele>40.5128</ele>
        <time>2011-01-25T19:06:45Z</time>
      </trkpt>
      <trkpt lat="59.527541" lon="17.8503701">
        <ele>42.916</ele>
        <time>2011-01-25T19:06:50Z</time>
      </trkpt>
      <trkpt lat="59.5275622" lon="17.8502321">
        <ele>43.8773</ele>
        <time>2011-01-25T19:06:54Z</time>
      </trkpt>
      <trkpt lat="59.5275654" lon="17.8500717">
        <ele>44.8386</ele>
        <time>2011-01-25T19:06:58Z</time>
      </trkpt>
      <trkpt lat="59.5275499" lon="17.8499427">
        <ele>45.3192</ele>
        <time>2011-01-25T19:07:01Z</time>
      </trkpt>
      <trkpt lat="59.5274612" lon="17.8496519">
        <ele>44.8386</ele>
        <time>2011-01-25T19:07:06Z</time>
      </trkpt>
      <trkpt lat="59.5273788" lon="17.8493083">
        <ele>44.8386</ele>
        <time>2011-01-25T19:07:11Z</time>
      </trkpt>
      <trkpt lat="59.5273075" lon="17.8490439">
        <ele>44.358</ele>
        <time>2011-01-25T19:07:14Z</time>
      </trkpt>
      <trkpt lat="59.5272535" lon="17.8483265">
        <ele>42.4354</ele>
        <time>2011-01-25T19:07:19Z</time>
      </trkpt>
      <trkpt lat="59.5271434" lon="17.8473708">
        <ele>38.5901</ele>
        <time>2011-01-25T19:07:25Z</time>
      </trkpt>
      <trkpt lat="59.5269123" lon="17.8466341">
        <ele>33.7834</ele>
        <time>2011-01-25T19:07:31Z</time>
      </trkpt>
      <trkpt lat="59.5268663" lon="17.8465183">
        <ele>33.3029</ele>
        <time>2011-01-25T19:07:32Z</time>
      </trkpt>
      <trkpt lat="59.5267502" lon="17.8463213">
        <ele>31.3801</ele>
        <time>2011-01-25T19:07:34Z</time>
      </trkpt>
      <trkpt lat="59.5265316" lon="17.8461766">
        <ele>29.4575</ele>
        <time>2011-01-25T19:07:37Z</time>
      </trkpt>
      <trkpt lat="59.5264547" lon="17.8461544">
        <ele>28.9769</ele>
        <time>2011-01-25T19:07:38Z</time>
      </trkpt>
      <trkpt lat="59.5262685" lon="17.846116">
        <ele>28.0155</ele>
        <time>2011-01-25T19:07:41Z</time>
      </trkpt>
      <trkpt lat="59.526112" lon="17.8462137">
        <ele>28.0155</ele>
        <time>2011-01-25T19:07:46Z</time>
      </trkpt>
      <trkpt lat="59.5259928" lon="17.8463218">
        <ele>29.9381</ele>
        <time>2011-01-25T19:07:51Z</time>
      </trkpt>
      <trkpt lat="59.5259572" lon="17.8463831">
        <ele>29.9381</ele>
        <time>2011-01-25T19:07:53Z</time>
      </trkpt>
      <trkpt lat="59.5259258" lon="17.8465047">
        <ele>32.8223</ele>
        <time>2011-01-25T19:07:58Z</time>
      </trkpt>
      <trkpt lat="59.5258778" lon="17.8466114">
        <ele>34.7449</ele>
        <time>2011-01-25T19:08:01Z</time>
      </trkpt>
      <trkpt lat="59.5257618" lon="17.8466921">
        <ele>36.1868</ele>
        <time>2011-01-25T19:08:07Z</time>
      </trkpt>
      <trkpt lat="59.5257013" lon="17.8467212">
        <ele>38.5901</ele>
        <time>2011-01-25T19:08:11Z</time>
      </trkpt>
      <trkpt lat="59.5255945" lon="17.8467801">
        <ele>39.5513</ele>
        <time>2011-01-25T19:08:16Z</time>
      </trkpt>
      <trkpt lat="59.5255157" lon="17.8468528">
        <ele>41.474</ele>
        <time>2011-01-25T19:08:20Z</time>
      </trkpt>
      <trkpt lat="59.5253886" lon="17.8468273">
        <ele>43.8773</ele>
        <time>2011-01-25T19:08:25Z</time>
      </trkpt>
      <trkpt lat="59.5252102" lon="17.8467865">
        <ele>47.2418</ele>
        <time>2011-01-25T19:08:31Z</time>
      </trkpt>
      <trkpt lat="59.5251425" lon="17.8468142">
        <ele>47.7225</ele>
        <time>2011-01-25T19:08:33Z</time>
      </trkpt>
      <trkpt lat="59.5249359" lon="17.8469147">
        <ele>49.1646</ele>
        <time>2011-01-25T19:08:39Z</time>
      </trkpt>
      <trkpt lat="59.5247252" lon="17.8470078">
        <ele>48.684</ele>
        <time>2011-01-25T19:08:44Z</time>
      </trkpt>
      <trkpt lat="59.5246145" lon="17.8470496">
        <ele>47.2418</ele>
        <time>2011-01-25T19:08:46Z</time>
      </trkpt>
      <trkpt lat="59.5243501" lon="17.8473238">
        <ele>45.3192</ele>
        <time>2011-01-25T19:08:52Z</time>
      </trkpt>
      <trkpt lat="59.524202" lon="17.8476363">
        <ele>43.8773</ele>
        <time>2011-01-25T19:08:57Z</time>
      </trkpt>
      <trkpt lat="59.5241519" lon="17.8477733">
        <ele>43.3966</ele>
        <time>2011-01-25T19:08:59Z</time>
      </trkpt>
      <trkpt lat="59.5239964" lon="17.8481505">
        <ele>41.474</ele>
        <time>2011-01-25T19:09:04Z</time>
      </trkpt>
      <trkpt lat="59.5238947" lon="17.8483409">
        <ele>41.474</ele>
        <time>2011-01-25T19:09:07Z</time>
      </trkpt>
      <trkpt lat="59.5238249" lon="17.8484171">
        <ele>40.5128</ele>
        <time>2011-01-25T19:09:09Z</time>
      </trkpt>
      <trkpt lat="59.523712" lon="17.8485021">
        <ele>39.5513</ele>
        <time>2011-01-25T19:09:12Z</time>
      </trkpt>
      <trkpt lat="59.5235012" lon="17.8484979">
        <ele>38.1094</ele>
        <time>2011-01-25T19:09:17Z</time>
      </trkpt>
      <trkpt lat="59.5234546" lon="17.8484835">
        <ele>37.6287</ele>
        <time>2011-01-25T19:09:18Z</time>
      </trkpt>
      <trkpt lat="59.5232645" lon="17.8484892">
        <ele>37.6287</ele>
        <time>2011-01-25T19:09:22Z</time>
      </trkpt>
      <trkpt lat="59.523181" lon="17.8485162">
        <ele>37.6287</ele>
        <time>2011-01-25T19:09:24Z</time>
      </trkpt>
      <trkpt lat="59.5230381" lon="17.8486782">
        <ele>37.6287</ele>
        <time>2011-01-25T19:09:28Z</time>
      </trkpt>
      <trkpt lat="59.5228723" lon="17.848859">
        <ele>37.1481</ele>
        <time>2011-01-25T19:09:32Z</time>
      </trkpt>
      <trkpt lat="59.5227405" lon="17.8490752">
        <ele>36.1868</ele>
        <time>2011-01-25T19:09:36Z</time>
      </trkpt>
      <trkpt lat="59.5226214" lon="17.8492373">
        <ele>34.2642</ele>
        <time>2011-01-25T19:09:39Z</time>
      </trkpt>
      <trkpt lat="59.522452" lon="17.849573">
        <ele>32.3416</ele>
        <time>2011-01-25T19:09:44Z</time>
      </trkpt>
      <trkpt lat="59.5223802" lon="17.8497631">
        <ele>30.8995</ele>
        <time>2011-01-25T19:09:47Z</time>
      </trkpt>
      <trkpt lat="59.5223253" lon="17.8499226">
        <ele>29.9381</ele>
        <time>2011-01-25T19:09:50Z</time>
      </trkpt>
      <trkpt lat="59.5222497" lon="17.8500554">
        <ele>29.4575</ele>
        <time>2011-01-25T19:10:12Z</time>
      </trkpt>
      <trkpt lat="59.5222572" lon="17.8500327">
        <ele>29.9381</ele>
        <time>2011-01-25T19:10:13Z</time>
      </trkpt>
      <trkpt lat="59.5223335" lon="17.8498043">
        <ele>29.4575</ele>
        <time>2011-01-25T19:10:18Z</time>
      </trkpt>
      <trkpt lat="59.5224045" lon="17.8495801">
        <ele>30.8995</ele>
        <time>2011-01-25T19:10:22Z</time>
      </trkpt>
      <trkpt lat="59.5224611" lon="17.8494865">
        <ele>30.4188</ele>
        <time>2011-01-25T19:10:24Z</time>
      </trkpt>
      <trkpt lat="59.522616" lon="17.8491885">
        <ele>30.8995</ele>
        <time>2011-01-25T19:10:30Z</time>
      </trkpt>
      <trkpt lat="59.5227097" lon="17.849002">
        <ele>30.8995</ele>
        <time>2011-01-25T19:10:35Z</time>
      </trkpt>
      <trkpt lat="59.522793" lon="17.8488501">
        <ele>32.3416</ele>
        <time>2011-01-25T19:10:39Z</time>
      </trkpt>
      <trkpt lat="59.5229664" lon="17.84863">
        <ele>34.2642</ele>
        <time>2011-01-25T19:10:47Z</time>
      </trkpt>
      <trkpt lat="59.5230567" lon="17.8485134">
        <ele>33.3029</ele>
        <time>2011-01-25T19:10:51Z</time>
      </trkpt>
      <trkpt lat="59.5231708" lon="17.8484281">
        <ele>32.3416</ele>
        <time>2011-01-25T19:10:56Z</time>
      </trkpt>
      <trkpt lat="59.5233029" lon="17.8484216">
        <ele>31.3801</ele>
        <time>2011-01-25T19:11:01Z</time>
      </trkpt>
      <trkpt lat="59.5234582" lon="17.8484385">
        <ele>29.4575</ele>
        <time>2011-01-25T19:11:06Z</time>
      </trkpt>
      <trkpt lat="59.5236023" lon="17.8484392">
        <ele>28.4962</ele>
        <time>2011-01-25T19:11:11Z</time>
      </trkpt>
      <trkpt lat="59.5237216" lon="17.8484356">
        <ele>28.4962</ele>
        <time>2011-01-25T19:11:15Z</time>
      </trkpt>
      <trkpt lat="59.5237869" lon="17.8483957">
        <ele>28.9769</ele>
        <time>2011-01-25T19:11:18Z</time>
      </trkpt>
      <trkpt lat="59.5238953" lon="17.8482631">
        <ele>30.4188</ele>
        <time>2011-01-25T19:11:23Z</time>
      </trkpt>
      <trkpt lat="59.5239825" lon="17.8480623">
        <ele>32.8223</ele>
        <time>2011-01-25T19:11:28Z</time>
      </trkpt>
      <trkpt lat="59.5240596" lon="17.8478333">
        <ele>34.7449</ele>
        <time>2011-01-25T19:11:33Z</time>
      </trkpt>
      <trkpt lat="59.5241326" lon="17.8476272">
        <ele>37.6287</ele>
        <time>2011-01-25T19:11:38Z</time>
      </trkpt>
      <trkpt lat="59.5241656" lon="17.8475215">
        <ele>37.6287</ele>
        <time>2011-01-25T19:11:40Z</time>
      </trkpt>
      <trkpt lat="59.5242844" lon="17.8473402">
        <ele>40.9934</ele>
        <time>2011-01-25T19:11:45Z</time>
      </trkpt>
      <trkpt lat="59.5244123" lon="17.8472328">
        <ele>40.5128</ele>
        <time>2011-01-25T19:11:51Z</time>
      </trkpt>
      <trkpt lat="59.5245331" lon="17.8471186">
        <ele>40.5128</ele>
        <time>2011-01-25T19:11:56Z</time>
      </trkpt>
      <trkpt lat="59.5246444" lon="17.8470284">
        <ele>41.9547</ele>
        <time>2011-01-25T19:12:02Z</time>
      </trkpt>
      <trkpt lat="59.5247846" lon="17.846978">
        <ele>40.9934</ele>
        <time>2011-01-25T19:12:09Z</time>
      </trkpt>
      <trkpt lat="59.52481" lon="17.8469744">
        <ele>41.474</ele>
        <time>2011-01-25T19:12:10Z</time>
      </trkpt>
      <trkpt lat="59.5248972" lon="17.8469696">
        <ele>41.474</ele>
        <time>2011-01-25T19:12:14Z</time>
      </trkpt>
      <trkpt lat="59.5249993" lon="17.8469008">
        <ele>41.9547</ele>
        <time>2011-01-25T19:12:19Z</time>
      </trkpt>
      <trkpt lat="59.5250992" lon="17.8468275">
        <ele>42.916</ele>
        <time>2011-01-25T19:12:23Z</time>
      </trkpt>
      <trkpt lat="59.5251947" lon="17.8467628">
        <ele>42.4354</ele>
        <time>2011-01-25T19:12:26Z</time>
      </trkpt>
      <trkpt lat="59.5254088" lon="17.8468021">
        <ele>40.9934</ele>
        <time>2011-01-25T19:12:32Z</time>
      </trkpt>
      <trkpt lat="59.5254603" lon="17.8467974">
        <ele>40.9934</ele>
        <time>2011-01-25T19:12:33Z</time>
      </trkpt>
      <trkpt lat="59.525739" lon="17.8466528">
        <ele>43.3966</ele>
        <time>2011-01-25T19:12:38Z</time>
      </trkpt>
      <trkpt lat="59.5258038" lon="17.8466258">
        <ele>42.916</ele>
        <time>2011-01-25T19:12:39Z</time>
      </trkpt>
      <trkpt lat="59.5259234" lon="17.8465188">
        <ele>42.916</ele>
        <time>2011-01-25T19:12:41Z</time>
      </trkpt>
      <trkpt lat="59.5262462" lon="17.8460561">
        <ele>40.0321</ele>
        <time>2011-01-25T19:12:46Z</time>
      </trkpt>
      <trkpt lat="59.5265116" lon="17.8461408">
        <ele>36.6675</ele>
        <time>2011-01-25T19:12:49Z</time>
      </trkpt>
      <trkpt lat="59.5266034" lon="17.8461626">
        <ele>34.2642</ele>
        <time>2011-01-25T19:12:52Z</time>
      </trkpt>
      <trkpt lat="59.5265916" lon="17.8461885">
        <ele>33.3029</ele>
        <time>2011-01-25T19:12:53Z</time>
      </trkpt>
      <trkpt lat="59.5265745" lon="17.8462456">
        <ele>32.8223</ele>
        <time>2011-01-25T19:12:56Z</time>
      </trkpt>
      <trkpt lat="59.5266226" lon="17.8462513">
        <ele>32.3416</ele>
        <time>2011-01-25T19:13:01Z</time>
      </trkpt>
      <trkpt lat="59.5266946" lon="17.8462761">
        <ele>31.8607</ele>
        <time>2011-01-25T19:13:05Z</time>
      </trkpt>
      <trkpt lat="59.5267883" lon="17.8463993">
        <ele>29.9381</ele>
        <time>2011-01-25T19:13:11Z</time>
      </trkpt>
      <trkpt lat="59.5268423" lon="17.8465538">
        <ele>27.0543</ele>
        <time>2011-01-25T19:13:16Z</time>
      </trkpt>
      <trkpt lat="59.5268942" lon="17.8466956">
        <ele>28.0155</ele>
        <time>2011-01-25T19:13:20Z</time>
      </trkpt>
      <trkpt lat="59.5269038" lon="17.846741">
        <ele>28.4962</ele>
        <time>2011-01-25T19:13:21Z</time>
      </trkpt>
      <trkpt lat="59.5269701" lon="17.8469168">
        <ele>29.4575</ele>
        <time>2011-01-25T19:13:26Z</time>
      </trkpt>
      <trkpt lat="59.5270283" lon="17.8470729">
        <ele>29.9381</ele>
        <time>2011-01-25T19:13:30Z</time>
      </trkpt>
      <trkpt lat="59.5270765" lon="17.8472347">
        <ele>31.3801</ele>
        <time>2011-01-25T19:13:35Z</time>
      </trkpt>
      <trkpt lat="59.5271582" lon="17.8474272">
        <ele>32.3416</ele>
        <time>2011-01-25T19:13:40Z</time>
      </trkpt>
      <trkpt lat="59.5271811" lon="17.8476125">
        <ele>30.8995</ele>
        <time>2011-01-25T19:13:44Z</time>
      </trkpt>
      <trkpt lat="59.5271811" lon="17.8478307">
        <ele>29.9381</ele>
        <time>2011-01-25T19:13:49Z</time>
      </trkpt>
      <trkpt lat="59.5271856" lon="17.84787">
        <ele>29.4575</ele>
        <time>2011-01-25T19:13:50Z</time>
      </trkpt>
      <trkpt lat="59.5272301" lon="17.8481052">
        <ele>29.9381</ele>
        <time>2011-01-25T19:13:56Z</time>
      </trkpt>
      <trkpt lat="59.527267" lon="17.8482364">
        <ele>30.8995</ele>
        <time>2011-01-25T19:14:00Z</time>
      </trkpt>
      <trkpt lat="59.5272802" lon="17.8482923">
        <ele>31.3801</ele>
        <time>2011-01-25T19:14:02Z</time>
      </trkpt>
      <trkpt lat="59.5272614" lon="17.8484742">
        <ele>30.8995</ele>
        <time>2011-01-25T19:14:09Z</time>
      </trkpt>
      <trkpt lat="59.5272868" lon="17.8486605">
        <ele>30.4188</ele>
        <time>2011-01-25T19:14:14Z</time>
      </trkpt>
      <trkpt lat="59.5272851" lon="17.8488234">
        <ele>31.8607</ele>
        <time>2011-01-25T19:14:18Z</time>
      </trkpt>
      <trkpt lat="59.5272855" lon="17.8489632">
        <ele>34.2642</ele>
        <time>2011-01-25T19:14:22Z</time>
      </trkpt>
      <trkpt lat="59.5273251" lon="17.8491321">
        <ele>34.7449</ele>
        <time>2011-01-25T19:14:27Z</time>
      </trkpt>
      <trkpt lat="59.5273596" lon="17.8493077">
        <ele>36.1868</ele>
        <time>2011-01-25T19:14:32Z</time>
      </trkpt>
      <trkpt lat="59.5273827" lon="17.8494986">
        <ele>40.0321</ele>
        <time>2011-01-25T19:14:37Z</time>
      </trkpt>
      <trkpt lat="59.5273914" lon="17.8495419">
        <ele>40.5128</ele>
        <time>2011-01-25T19:14:38Z</time>
      </trkpt>
      <trkpt lat="59.5274552" lon="17.8497773">
        <ele>42.4354</ele>
        <time>2011-01-25T19:14:43Z</time>
      </trkpt>
      <trkpt lat="59.5274627" lon="17.8498074">
        <ele>42.916</ele>
        <time>2011-01-25T19:14:44Z</time>
      </trkpt>
      <trkpt lat="59.5274917" lon="17.8499323">
        <ele>42.916</ele>
        <time>2011-01-25T19:14:48Z</time>
      </trkpt>
      <trkpt lat="59.5275156" lon="17.8502648">
        <ele>41.474</ele>
        <time>2011-01-25T19:14:54Z</time>
      </trkpt>
      <trkpt lat="59.5275726" lon="17.8506933">
        <ele>38.1094</ele>
        <time>2011-01-25T19:14:58Z</time>
      </trkpt>
      <trkpt lat="59.5277984" lon="17.8512643">
        <ele>35.2255</ele>
        <time>2011-01-25T19:15:03Z</time>
      </trkpt>
      <trkpt lat="59.5279613" lon="17.8516293">
        <ele>33.7834</ele>
        <time>2011-01-25T19:15:07Z</time>
      </trkpt>
      <trkpt lat="59.5281435" lon="17.8520651">
        <ele>32.8223</ele>
        <time>2011-01-25T19:15:12Z</time>
      </trkpt>
      <trkpt lat="59.528344" lon="17.8522526">
        <ele>33.3029</ele>
        <time>2011-01-25T19:15:16Z</time>
      </trkpt>
      <trkpt lat="59.5285269" lon="17.8523922">
        <ele>35.2255</ele>
        <time>2011-01-25T19:15:20Z</time>
      </trkpt>
      <trkpt lat="59.5286046" lon="17.8524502">
        <ele>32.8223</ele>
        <time>2011-01-25T19:15:22Z</time>
      </trkpt>
      <trkpt lat="59.5286751" lon="17.8524613">
        <ele>32.3416</ele>
        <time>2011-01-25T19:15:24Z</time>
      </trkpt>
      <trkpt lat="59.5288694" lon="17.8524276">
        <ele>31.8607</ele>
        <time>2011-01-25T19:15:28Z</time>
      </trkpt>
      <trkpt lat="59.5289184" lon="17.8524179">
        <ele>31.3801</ele>
        <time>2011-01-25T19:15:29Z</time>
      </trkpt>
      <trkpt lat="59.529162" lon="17.8525764">
        <ele>30.8995</ele>
        <time>2011-01-25T19:15:34Z</time>
      </trkpt>
      <trkpt lat="59.5293151" lon="17.8528758">
        <ele>29.4575</ele>
        <time>2011-01-25T19:15:39Z</time>
      </trkpt>
      <trkpt lat="59.5293702" lon="17.8530486">
        <ele>29.9381</ele>
        <time>2011-01-25T19:15:42Z</time>
      </trkpt>
      <trkpt lat="59.5294682" lon="17.8533469">
        <ele>29.4575</ele>
        <time>2011-01-25T19:15:48Z</time>
      </trkpt>
      <trkpt lat="59.5295437" lon="17.8535592">
        <ele>28.0155</ele>
        <time>2011-01-25T19:15:53Z</time>
      </trkpt>
      <trkpt lat="59.5296349" lon="17.8538183">
        <ele>26.5736</ele>
        <time>2011-01-25T19:15:57Z</time>
      </trkpt>
      <trkpt lat="59.5297322" lon="17.8541059">
        <ele>28.9769</ele>
        <time>2011-01-25T19:16:01Z</time>
      </trkpt>
      <trkpt lat="59.5298619" lon="17.8543945">
        <ele>28.4962</ele>
        <time>2011-01-25T19:16:07Z</time>
      </trkpt>
      <trkpt lat="59.5299352" lon="17.8545793">
        <ele>28.9769</ele>
        <time>2011-01-25T19:16:11Z</time>
      </trkpt>
      <trkpt lat="59.530021" lon="17.8547949">
        <ele>28.4962</ele>
        <time>2011-01-25T19:16:16Z</time>
      </trkpt>
      <trkpt lat="59.5301054" lon="17.8549936">
        <ele>28.0155</ele>
        <time>2011-01-25T19:16:21Z</time>
      </trkpt>
      <trkpt lat="59.5302116" lon="17.8552291">
        <ele>28.9769</ele>
        <time>2011-01-25T19:16:25Z</time>
      </trkpt>
      <trkpt lat="59.5302907" lon="17.8554367">
        <ele>27.5349</ele>
        <time>2011-01-25T19:16:30Z</time>
      </trkpt>
      <trkpt lat="59.530404" lon="17.8555635">
        <ele>29.4575</ele>
        <time>2011-01-25T19:16:35Z</time>
      </trkpt>
      <trkpt lat="59.5305285" lon="17.8555564">
        <ele>32.3416</ele>
        <time>2011-01-25T19:16:40Z</time>
      </trkpt>
      <trkpt lat="59.5306367" lon="17.8557052">
        <ele>34.2642</ele>
        <time>2011-01-25T19:16:44Z</time>
      </trkpt>
      <trkpt lat="59.5307288" lon="17.8559672">
        <ele>33.3029</ele>
        <time>2011-01-25T19:16:48Z</time>
      </trkpt>
      <trkpt lat="59.5308075" lon="17.8563128">
        <ele>32.3416</ele>
        <time>2011-01-25T19:16:53Z</time>
      </trkpt>
      <trkpt lat="59.5308569" lon="17.8565551">
        <ele>32.8223</ele>
        <time>2011-01-25T19:16:57Z</time>
      </trkpt>
      <trkpt lat="59.5309113" lon="17.8568952">
        <ele>35.2255</ele>
        <time>2011-01-25T19:17:01Z</time>
      </trkpt>
      <trkpt lat="59.530961" lon="17.8571576">
        <ele>35.2255</ele>
        <time>2011-01-25T19:17:05Z</time>
      </trkpt>
      <trkpt lat="59.5309784" lon="17.857273">
        <ele>34.7449</ele>
        <time>2011-01-25T19:17:07Z</time>
      </trkpt>
      <trkpt lat="59.5309787" lon="17.8573974">
        <ele>35.7061</ele>
        <time>2011-01-25T19:17:09Z</time>
      </trkpt>
      <trkpt lat="59.5310417" lon="17.8578337">
        <ele>34.2642</ele>
        <time>2011-01-25T19:17:16Z</time>
      </trkpt>
      <trkpt lat="59.5310701" lon="17.8581915">
        <ele>35.2255</ele>
        <time>2011-01-25T19:17:21Z</time>
      </trkpt>
      <trkpt lat="59.5310527" lon="17.8585805">
        <ele>33.3029</ele>
        <time>2011-01-25T19:17:27Z</time>
      </trkpt>
      <trkpt lat="59.5310713" lon="17.8589745">
        <ele>31.3801</ele>
        <time>2011-01-25T19:17:32Z</time>
      </trkpt>
      <trkpt lat="59.5311361" lon="17.8592462">
        <ele>31.3801</ele>
        <time>2011-01-25T19:17:36Z</time>
      </trkpt>
      <trkpt lat="59.5312848" lon="17.8594656">
        <ele>30.4188</ele>
        <time>2011-01-25T19:17:41Z</time>
      </trkpt>
      <trkpt lat="59.5313665" lon="17.8595609">
        <ele>29.4575</ele>
        <time>2011-01-25T19:17:43Z</time>
      </trkpt>
      <trkpt lat="59.5315446" lon="17.859902">
        <ele>26.5736</ele>
        <time>2011-01-25T19:17:48Z</time>
      </trkpt>
      <trkpt lat="59.5316733" lon="17.860205">
        <ele>27.5349</ele>
        <time>2011-01-25T19:17:52Z</time>
      </trkpt>
      <trkpt lat="59.5317381" lon="17.8603753">
        <ele>27.5349</ele>
        <time>2011-01-25T19:17:54Z</time>
      </trkpt>
      <trkpt lat="59.5317899" lon="17.8605535">
        <ele>28.4962</ele>
        <time>2011-01-25T19:17:56Z</time>
      </trkpt>
      <trkpt lat="59.5318298" lon="17.8607466">
        <ele>27.0543</ele>
        <time>2011-01-25T19:17:58Z</time>
      </trkpt>
      <trkpt lat="59.531885" lon="17.8612434">
        <ele>28.0155</ele>
        <time>2011-01-25T19:18:03Z</time>
      </trkpt>
      <trkpt lat="59.5319474" lon="17.8617596">
        <ele>30.4188</ele>
        <time>2011-01-25T19:18:08Z</time>
      </trkpt>
      <trkpt lat="59.532022" lon="17.8621482">
        <ele>27.5349</ele>
        <time>2011-01-25T19:18:13Z</time>
      </trkpt>
      <trkpt lat="59.5321153" lon="17.8624517">
        <ele>23.6896</ele>
        <time>2011-01-25T19:18:17Z</time>
      </trkpt>
      <trkpt lat="59.5321364" lon="17.862541">
        <ele>22.2476</ele>
        <time>2011-01-25T19:18:18Z</time>
      </trkpt>
      <trkpt lat="59.5322566" lon="17.8630226">
        <ele>18.8831</ele>
        <time>2011-01-25T19:18:23Z</time>
      </trkpt>
      <trkpt lat="59.5322834" lon="17.8633572">
        <ele>20.8057</ele>
        <time>2011-01-25T19:18:27Z</time>
      </trkpt>
      <trkpt lat="59.5322027" lon="17.8635111">
        <ele>21.767</ele>
        <time>2011-01-25T19:18:30Z</time>
      </trkpt>
      <trkpt lat="59.5320896" lon="17.8634908">
        <ele>22.7283</ele>
        <time>2011-01-25T19:18:33Z</time>
      </trkpt>
      <trkpt lat="59.5319396" lon="17.8635348">
        <ele>25.1317</ele>
        <time>2011-01-25T19:18:39Z</time>
      </trkpt>
      <trkpt lat="59.5318613" lon="17.8635897">
        <ele>27.0543</ele>
        <time>2011-01-25T19:18:45Z</time>
      </trkpt>
      <trkpt lat="59.5318499" lon="17.8635981">
        <ele>27.5349</ele>
        <time>2011-01-25T19:18:46Z</time>
      </trkpt>
      <trkpt lat="59.5318654" lon="17.8635311">
        <ele>28.9769</ele>
        <time>2011-01-25T19:20:19Z</time>
      </trkpt>
      <trkpt lat="59.5320507" lon="17.8634839">
        <ele>29.4575</ele>
        <time>2011-01-25T19:20:23Z</time>
      </trkpt>
      <trkpt lat="59.5321472" lon="17.8634864">
        <ele>29.9381</ele>
        <time>2011-01-25T19:20:26Z</time>
      </trkpt>
      <trkpt lat="59.532226" lon="17.8636575">
        <ele>28.9769</ele>
        <time>2011-01-25T19:20:30Z</time>
      </trkpt>
      <trkpt lat="59.5322676" lon="17.8638315">
        <ele>29.4575</ele>
        <time>2011-01-25T19:20:33Z</time>
      </trkpt>
      <trkpt lat="59.5323244" lon="17.8643149">
        <ele>28.0155</ele>
        <time>2011-01-25T19:20:43Z</time>
      </trkpt>
      <trkpt lat="59.5323768" lon="17.8645787">
        <ele>26.5736</ele>
        <time>2011-01-25T19:20:47Z</time>
      </trkpt>
      <trkpt lat="59.5324161" lon="17.8649817">
        <ele>24.1703</ele>
        <time>2011-01-25T19:20:52Z</time>
      </trkpt>
      <trkpt lat="59.5324586" lon="17.865281">
        <ele>22.7283</ele>
        <time>2011-01-25T19:20:56Z</time>
      </trkpt>
      <trkpt lat="59.5325069" lon="17.8656235">
        <ele>21.767</ele>
        <time>2011-01-25T19:21:01Z</time>
      </trkpt>
      <trkpt lat="59.5325482" lon="17.8659232">
        <ele>19.8444</ele>
        <time>2011-01-25T19:21:05Z</time>
      </trkpt>
      <trkpt lat="59.532597" lon="17.8662365">
        <ele>20.325</ele>
        <time>2011-01-25T19:21:09Z</time>
      </trkpt>
      <trkpt lat="59.532616" lon="17.8663082">
        <ele>19.8444</ele>
        <time>2011-01-25T19:21:10Z</time>
      </trkpt>
      <trkpt lat="59.5326762" lon="17.8665258">
        <ele>18.4023</ele>
        <time>2011-01-25T19:21:13Z</time>
      </trkpt>
      <trkpt lat="59.5328112" lon="17.8668029">
        <ele>15.0377</ele>
        <time>2011-01-25T19:21:18Z</time>
      </trkpt>
      <trkpt lat="59.5328424" lon="17.8668548">
        <ele>14.0764</ele>
        <time>2011-01-25T19:21:19Z</time>
      </trkpt>
      <trkpt lat="59.5329745" lon="17.8672508">
        <ele>13.1151</ele>
        <time>2011-01-25T19:21:25Z</time>
      </trkpt>
      <trkpt lat="59.5330796" lon="17.8676383">
        <ele>12.1538</ele>
        <time>2011-01-25T19:21:31Z</time>
      </trkpt>
      <trkpt lat="59.5331775" lon="17.8679385">
        <ele>11.1925</ele>
        <time>2011-01-25T19:21:36Z</time>
      </trkpt>
      <trkpt lat="59.533231" lon="17.868216">
        <ele>10.2312</ele>
        <time>2011-01-25T19:21:40Z</time>
      </trkpt>
      <trkpt lat="59.533333" lon="17.8684475">
        <ele>9.2699</ele>
        <time>2011-01-25T19:21:44Z</time>
      </trkpt>
      <trkpt lat="59.5334338" lon="17.8686636">
        <ele>8.30859</ele>
        <time>2011-01-25T19:21:48Z</time>
      </trkpt>
      <trkpt lat="59.5335282" lon="17.8689335">
        <ele>8.30859</ele>
        <time>2011-01-25T19:21:53Z</time>
      </trkpt>
      <trkpt lat="59.5335972" lon="17.8692635">
        <ele>8.78918</ele>
        <time>2011-01-25T19:21:58Z</time>
      </trkpt>
      <trkpt lat="59.5337411" lon="17.8697243">
        <ele>10.2312</ele>
        <time>2011-01-25T19:22:05Z</time>
      </trkpt>
      <trkpt lat="59.5337687" lon="17.8697995">
        <ele>11.6732</ele>
        <time>2011-01-25T19:22:06Z</time>
      </trkpt>
      <trkpt lat="59.5339182" lon="17.87003">
        <ele>12.1538</ele>
        <time>2011-01-25T19:22:11Z</time>
      </trkpt>
      <trkpt lat="59.5339643" lon="17.8700907">
        <ele>12.1538</ele>
        <time>2011-01-25T19:22:13Z</time>
      </trkpt>
      <trkpt lat="59.5341635" lon="17.8702471">
        <ele>14.557</ele>
        <time>2011-01-25T19:22:19Z</time>
      </trkpt>
      <trkpt lat="59.5342759" lon="17.8702974">
        <ele>15.999</ele>
        <time>2011-01-25T19:22:23Z</time>
      </trkpt>
      <trkpt lat="59.5343802" lon="17.8703041">
        <ele>17.4412</ele>
        <time>2011-01-25T19:22:27Z</time>
      </trkpt>
      <trkpt lat="59.53447" lon="17.8702839">
        <ele>16.9604</ele>
        <time>2011-01-25T19:22:31Z</time>
      </trkpt>
      <trkpt lat="59.5346074" lon="17.8703462">
        <ele>19.8444</ele>
        <time>2011-01-25T19:22:36Z</time>
      </trkpt>
      <trkpt lat="59.5347437" lon="17.8705414">
        <ele>20.325</ele>
        <time>2011-01-25T19:22:41Z</time>
      </trkpt>
      <trkpt lat="59.5347698" lon="17.8705746">
        <ele>20.325</ele>
        <time>2011-01-25T19:22:42Z</time>
      </trkpt>
      <trkpt lat="59.5348683" lon="17.8707766">
        <ele>21.767</ele>
        <time>2011-01-25T19:22:46Z</time>
      </trkpt>
      <trkpt lat="59.5349811" lon="17.8709661">
        <ele>22.2476</ele>
        <time>2011-01-25T19:22:50Z</time>
      </trkpt>
      <trkpt lat="59.5350889" lon="17.8711697">
        <ele>24.651</ele>
        <time>2011-01-25T19:22:54Z</time>
      </trkpt>
      <trkpt lat="59.535222" lon="17.8715126">
        <ele>24.1703</ele>
        <time>2011-01-25T19:23:00Z</time>
      </trkpt>
      <trkpt lat="59.5353591" lon="17.871788">
        <ele>25.6123</ele>
        <time>2011-01-25T19:23:05Z</time>
      </trkpt>
      <trkpt lat="59.535449" lon="17.8720006">
        <ele>25.1317</ele>
        <time>2011-01-25T19:23:09Z</time>
      </trkpt>
      <trkpt lat="59.5355499" lon="17.8721855">
        <ele>28.0155</ele>
        <time>2011-01-25T19:23:13Z</time>
      </trkpt>
      <trkpt lat="59.5356448" lon="17.872313">
        <ele>27.0543</ele>
        <time>2011-01-25T19:23:17Z</time>
      </trkpt>
      <trkpt lat="59.5357977" lon="17.8725439">
        <ele>26.0929</ele>
        <time>2011-01-25T19:23:21Z</time>
      </trkpt>
      <trkpt lat="59.5358738" lon="17.8727673">
        <ele>25.1317</ele>
        <time>2011-01-25T19:23:24Z</time>
      </trkpt>
      <trkpt lat="59.535947" lon="17.8729461">
        <ele>24.1703</ele>
        <time>2011-01-25T19:23:27Z</time>
      </trkpt>
      <trkpt lat="59.5360938" lon="17.8731055">
        <ele>23.209</ele>
        <time>2011-01-25T19:23:33Z</time>
      </trkpt>
      <trkpt lat="59.5361286" lon="17.8731267">
        <ele>22.7283</ele>
        <time>2011-01-25T19:23:34Z</time>
      </trkpt>
      <trkpt lat="59.5363489" lon="17.8732801">
        <ele>22.7283</ele>
        <time>2011-01-25T19:23:40Z</time>
      </trkpt>
      <trkpt lat="59.536457" lon="17.8734842">
        <ele>22.2476</ele>
        <time>2011-01-25T19:23:44Z</time>
      </trkpt>
      <trkpt lat="59.536524" lon="17.8737676">
        <ele>21.2864</ele>
        <time>2011-01-25T19:23:48Z</time>
      </trkpt>
      <trkpt lat="59.536538" lon="17.8738448">
        <ele>20.8057</ele>
        <time>2011-01-25T19:23:49Z</time>
      </trkpt>
      <trkpt lat="59.5365466" lon="17.8743465">
        <ele>17.9218</ele>
        <time>2011-01-25T19:23:53Z</time>
      </trkpt>
      <trkpt lat="59.5365175" lon="17.8748014">
        <ele>17.4412</ele>
        <time>2011-01-25T19:23:56Z</time>
      </trkpt>
      <trkpt lat="59.5364235" lon="17.8752568">
        <ele>17.9218</ele>
        <time>2011-01-25T19:24:00Z</time>
      </trkpt>
      <trkpt lat="59.5363311" lon="17.8756235">
        <ele>16.4797</ele>
        <time>2011-01-25T19:24:04Z</time>
      </trkpt>
      <trkpt lat="59.5362792" lon="17.8758546">
        <ele>15.5184</ele>
        <time>2011-01-25T19:24:07Z</time>
      </trkpt>
      <trkpt lat="59.5362155" lon="17.8760768">
        <ele>15.5184</ele>
        <time>2011-01-25T19:24:10Z</time>
      </trkpt>
      <trkpt lat="59.536138" lon="17.8762887">
        <ele>15.999</ele>
        <time>2011-01-25T19:24:14Z</time>
      </trkpt>
      <trkpt lat="59.5361028" lon="17.8763804">
        <ele>15.0377</ele>
        <time>2011-01-25T19:24:17Z</time>
      </trkpt>
      <trkpt lat="59.5359814" lon="17.8763155">
        <ele>19.3638</ele>
        <time>2011-01-25T19:24:24Z</time>
      </trkpt>
      <trkpt lat="59.5359014" lon="17.8762922">
        <ele>20.8057</ele>
        <time>2011-01-25T19:24:27Z</time>
      </trkpt>
      <trkpt lat="59.5358328" lon="17.876298">
        <ele>20.8057</ele>
        <time>2011-01-25T19:24:30Z</time>
      </trkpt>
      <trkpt lat="59.5356537" lon="17.8763099">
        <ele>21.767</ele>
        <time>2011-01-25T19:24:37Z</time>
      </trkpt>
      <trkpt lat="59.5355414" lon="17.8762923">
        <ele>21.2864</ele>
        <time>2011-01-25T19:24:41Z</time>
      </trkpt>
      <trkpt lat="59.5354106" lon="17.8762653">
        <ele>20.8057</ele>
        <time>2011-01-25T19:24:46Z</time>
      </trkpt>
      <trkpt lat="59.5352932" lon="17.8762193">
        <ele>22.7283</ele>
        <time>2011-01-25T19:24:51Z</time>
      </trkpt>
      <trkpt lat="59.5351923" lon="17.8761841">
        <ele>22.2476</ele>
        <time>2011-01-25T19:24:56Z</time>
      </trkpt>
      <trkpt lat="59.5350942" lon="17.8762087">
        <ele>23.209</ele>
        <time>2011-01-25T19:25:00Z</time>
      </trkpt>
      <trkpt lat="59.5349927" lon="17.8762954">
        <ele>23.6896</ele>
        <time>2011-01-25T19:25:04Z</time>
      </trkpt>
      <trkpt lat="59.5348477" lon="17.8764296">
        <ele>24.1703</ele>
        <time>2011-01-25T19:25:09Z</time>
      </trkpt>
      <trkpt lat="59.5347228" lon="17.8765542">
        <ele>25.1317</ele>
        <time>2011-01-25T19:25:14Z</time>
      </trkpt>
      <trkpt lat="59.5346123" lon="17.8766668">
        <ele>25.6123</ele>
        <time>2011-01-25T19:25:18Z</time>
      </trkpt>
      <trkpt lat="59.5344531" lon="17.8768311">
        <ele>26.0929</ele>
        <time>2011-01-25T19:25:23Z</time>
      </trkpt>
      <trkpt lat="59.5342721" lon="17.8769163">
        <ele>25.6123</ele>
        <time>2011-01-25T19:25:27Z</time>
      </trkpt>
      <trkpt lat="59.5340967" lon="17.8768736">
        <ele>24.651</ele>
        <time>2011-01-25T19:25:31Z</time>
      </trkpt>
      <trkpt lat="59.5340537" lon="17.8768896">
        <ele>24.1703</ele>
        <time>2011-01-25T19:25:32Z</time>
      </trkpt>
      <trkpt lat="59.5339102" lon="17.8768979">
        <ele>26.0929</ele>
        <time>2011-01-25T19:25:36Z</time>
      </trkpt>
      <trkpt lat="59.5337573" lon="17.8769728">
        <ele>28.4962</ele>
        <time>2011-01-25T19:25:41Z</time>
      </trkpt>
      <trkpt lat="59.5336589" lon="17.8771029">
        <ele>29.9381</ele>
        <time>2011-01-25T19:25:46Z</time>
      </trkpt>
      <trkpt lat="59.5335692" lon="17.8772984">
        <ele>28.4962</ele>
        <time>2011-01-25T19:25:50Z</time>
      </trkpt>
      <trkpt lat="59.5334893" lon="17.8774789">
        <ele>25.6123</ele>
        <time>2011-01-25T19:25:54Z</time>
      </trkpt>
      <trkpt lat="59.5334086" lon="17.8776266">
        <ele>26.0929</ele>
        <time>2011-01-25T19:25:59Z</time>
      </trkpt>
      <trkpt lat="59.5333556" lon="17.8777437">
        <ele>26.5736</ele>
        <time>2011-01-25T19:26:04Z</time>
      </trkpt>
      <trkpt lat="59.5333154" lon="17.8778343">
        <ele>26.5736</ele>
        <time>2011-01-25T19:26:07Z</time>
      </trkpt>
      <trkpt lat="59.5332651" lon="17.8781008">
        <ele>27.0543</ele>
        <time>2011-01-25T19:26:13Z</time>
      </trkpt>
      <trkpt lat="59.5331776" lon="17.8784426">
        <ele>26.5736</ele>
        <time>2011-01-25T19:26:18Z</time>
      </trkpt>
      <trkpt lat="59.5330424" lon="17.8787178">
        <ele>27.5349</ele>
        <time>2011-01-25T19:26:22Z</time>
      </trkpt>
      <trkpt lat="59.533014" lon="17.878783">
        <ele>27.5349</ele>
        <time>2011-01-25T19:26:23Z</time>
      </trkpt>
      <trkpt lat="59.5329593" lon="17.8791367">
        <ele>28.0155</ele>
        <time>2011-01-25T19:26:28Z</time>
      </trkpt>
      <trkpt lat="59.5329714" lon="17.8794106">
        <ele>26.5736</ele>
        <time>2011-01-25T19:26:34Z</time>
      </trkpt>
      <trkpt lat="59.5329603" lon="17.8794978">
        <ele>26.0929</ele>
        <time>2011-01-25T19:26:36Z</time>
      </trkpt>
      <trkpt lat="59.5329047" lon="17.8797581">
        <ele>25.6123</ele>
        <time>2011-01-25T19:26:42Z</time>
      </trkpt>
      <trkpt lat="59.5328479" lon="17.8799374">
        <ele>26.0929</ele>
        <time>2011-01-25T19:26:46Z</time>
      </trkpt>
      <trkpt lat="59.5328144" lon="17.8800536">
        <ele>27.5349</ele>
        <time>2011-01-25T19:26:49Z</time>
      </trkpt>
      <trkpt lat="59.5326623" lon="17.8803287">
        <ele>28.9769</ele>
        <time>2011-01-25T19:26:55Z</time>
      </trkpt>
      <trkpt lat="59.5325254" lon="17.8805405">
        <ele>28.0155</ele>
        <time>2011-01-25T19:26:59Z</time>
      </trkpt>
      <trkpt lat="59.5324501" lon="17.880728">
        <ele>27.0543</ele>
        <time>2011-01-25T19:27:03Z</time>
      </trkpt>
      <trkpt lat="59.5323757" lon="17.8810032">
        <ele>26.0929</ele>
        <time>2011-01-25T19:27:07Z</time>
      </trkpt>
      <trkpt lat="59.5323632" lon="17.8810683">
        <ele>26.0929</ele>
        <time>2011-01-25T19:27:08Z</time>
      </trkpt>
      <trkpt lat="59.5323173" lon="17.8811978">
        <ele>26.5736</ele>
        <time>2011-01-25T19:27:10Z</time>
      </trkpt>
      <trkpt lat="59.5322172" lon="17.8814382">
        <ele>25.1317</ele>
        <time>2011-01-25T19:27:15Z</time>
      </trkpt>
      <trkpt lat="59.5321426" lon="17.8816267">
        <ele>26.0929</ele>
        <time>2011-01-25T19:27:19Z</time>
      </trkpt>
      <trkpt lat="59.532011" lon="17.8819739">
        <ele>26.0929</ele>
        <time>2011-01-25T19:27:24Z</time>
      </trkpt>
      <trkpt lat="59.531913" lon="17.8822856">
        <ele>27.5349</ele>
        <time>2011-01-25T19:27:28Z</time>
      </trkpt>
      <trkpt lat="59.5318519" lon="17.8824262">
        <ele>27.0543</ele>
        <time>2011-01-25T19:27:30Z</time>
      </trkpt>
      <trkpt lat="59.531795" lon="17.882579">
        <ele>26.5736</ele>
        <time>2011-01-25T19:27:32Z</time>
      </trkpt>
      <trkpt lat="59.5317527" lon="17.8827193">
        <ele>26.0929</ele>
        <time>2011-01-25T19:27:34Z</time>
      </trkpt>
      <trkpt lat="59.5316847" lon="17.8829776">
        <ele>26.5736</ele>
        <time>2011-01-25T19:27:38Z</time>
      </trkpt>
      <trkpt lat="59.5315878" lon="17.8832523">
        <ele>26.5736</ele>
        <time>2011-01-25T19:27:43Z</time>
      </trkpt>
      <trkpt lat="59.5314765" lon="17.8834798">
        <ele>27.0543</ele>
        <time>2011-01-25T19:27:49Z</time>
      </trkpt>
      <trkpt lat="59.5313813" lon="17.8836507">
        <ele>27.0543</ele>
        <time>2011-01-25T19:27:54Z</time>
      </trkpt>
      <trkpt lat="59.5312885" lon="17.8837646">
        <ele>27.0543</ele>
        <time>2011-01-25T19:27:59Z</time>
      </trkpt>
      <trkpt lat="59.5311827" lon="17.8838127">
        <ele>27.5349</ele>
        <time>2011-01-25T19:28:04Z</time>
      </trkpt>
      <trkpt lat="59.5310683" lon="17.8838319">
        <ele>28.9769</ele>
        <time>2011-01-25T19:28:08Z</time>
      </trkpt>
      <trkpt lat="59.5309704" lon="17.883774">
        <ele>29.4575</ele>
        <time>2011-01-25T19:28:12Z</time>
      </trkpt>
      <trkpt lat="59.5308995" lon="17.8836155">
        <ele>29.9381</ele>
        <time>2011-01-25T19:28:16Z</time>
      </trkpt>
      <trkpt lat="59.5307979" lon="17.8834025">
        <ele>30.4188</ele>
        <time>2011-01-25T19:28:21Z</time>
      </trkpt>
      <trkpt lat="59.5307262" lon="17.8832316">
        <ele>32.3416</ele>
        <time>2011-01-25T19:28:25Z</time>
      </trkpt>
      <trkpt lat="59.5306397" lon="17.8830969">
        <ele>34.7449</ele>
        <time>2011-01-25T19:28:30Z</time>
      </trkpt>
      <trkpt lat="59.5305596" lon="17.8829616">
        <ele>36.1868</ele>
        <time>2011-01-25T19:28:35Z</time>
      </trkpt>
      <trkpt lat="59.5304926" lon="17.8828782">
        <ele>37.1481</ele>
        <time>2011-01-25T19:28:40Z</time>
      </trkpt>
      <trkpt lat="59.5304078" lon="17.8827896">
        <ele>39.5513</ele>
        <time>2011-01-25T19:28:45Z</time>
      </trkpt>
      <trkpt lat="59.5303124" lon="17.8827524">
        <ele>40.0321</ele>
        <time>2011-01-25T19:28:51Z</time>
      </trkpt>
      <trkpt lat="59.5302297" lon="17.8827172">
        <ele>39.5513</ele>
        <time>2011-01-25T19:28:56Z</time>
      </trkpt>
      <trkpt lat="59.5301436" lon="17.8826712">
        <ele>39.0707</ele>
        <time>2011-01-25T19:29:01Z</time>
      </trkpt>
      <trkpt lat="59.5300613" lon="17.8826157">
        <ele>40.0321</ele>
        <time>2011-01-25T19:29:05Z</time>
      </trkpt>
      <trkpt lat="59.5300089" lon="17.8825937">
        <ele>40.5128</ele>
        <time>2011-01-25T19:29:07Z</time>
      </trkpt>
      <trkpt lat="59.5298773" lon="17.8823529">
        <ele>40.9934</ele>
        <time>2011-01-25T19:29:13Z</time>
      </trkpt>
      <trkpt lat="59.5297573" lon="17.8822449">
        <ele>41.9547</ele>
        <time>2011-01-25T19:29:17Z</time>
      </trkpt>
      <trkpt lat="59.5296333" lon="17.8821439">
        <ele>42.916</ele>
        <time>2011-01-25T19:29:21Z</time>
      </trkpt>
      <trkpt lat="59.5294878" lon="17.8819675">
        <ele>41.9547</ele>
        <time>2011-01-25T19:29:26Z</time>
      </trkpt>
      <trkpt lat="59.5293438" lon="17.8818431">
        <ele>42.4354</ele>
        <time>2011-01-25T19:29:30Z</time>
      </trkpt>
      <trkpt lat="59.5291941" lon="17.8817718">
        <ele>42.4354</ele>
        <time>2011-01-25T19:29:34Z</time>
      </trkpt>
      <trkpt lat="59.5290595" lon="17.8816672">
        <ele>42.916</ele>
        <time>2011-01-25T19:29:38Z</time>
      </trkpt>
      <trkpt lat="59.5289287" lon="17.8815634">
        <ele>43.8773</ele>
        <time>2011-01-25T19:29:42Z</time>
      </trkpt>
      <trkpt lat="59.5288139" lon="17.8815259">
        <ele>44.8386</ele>
        <time>2011-01-25T19:29:46Z</time>
      </trkpt>
      <trkpt lat="59.5286818" lon="17.8814425">
        <ele>44.358</ele>
        <time>2011-01-25T19:29:51Z</time>
      </trkpt>
      <trkpt lat="59.5285093" lon="17.8813906">
        <ele>43.8773</ele>
        <time>2011-01-25T19:29:55Z</time>
      </trkpt>
      <trkpt lat="59.5283812" lon="17.8813989">
        <ele>43.3966</ele>
        <time>2011-01-25T19:29:58Z</time>
      </trkpt>
      <trkpt lat="59.5282834" lon="17.8813961">
        <ele>42.4354</ele>
        <time>2011-01-25T19:30:00Z</time>
      </trkpt>
      <trkpt lat="59.5280995" lon="17.8813652">
        <ele>39.5513</ele>
        <time>2011-01-25T19:30:05Z</time>
      </trkpt>
      <trkpt lat="59.527959" lon="17.8813813">
        <ele>38.5901</ele>
        <time>2011-01-25T19:30:10Z</time>
      </trkpt>
      <trkpt lat="59.5278198" lon="17.8814377">
        <ele>40.0321</ele>
        <time>2011-01-25T19:30:14Z</time>
      </trkpt>
      <trkpt lat="59.5276976" lon="17.8815403">
        <ele>41.9547</ele>
        <time>2011-01-25T19:30:19Z</time>
      </trkpt>
      <trkpt lat="59.5275775" lon="17.881734">
        <ele>41.474</ele>
        <time>2011-01-25T19:30:24Z</time>
      </trkpt>
      <trkpt lat="59.5275055" lon="17.8818524">
        <ele>40.0321</ele>
        <time>2011-01-25T19:30:28Z</time>
      </trkpt>
      <trkpt lat="59.5273557" lon="17.8820106">
        <ele>38.1094</ele>
        <time>2011-01-25T19:30:33Z</time>
      </trkpt>
      <trkpt lat="59.5271442" lon="17.8819631">
        <ele>37.6287</ele>
        <time>2011-01-25T19:30:38Z</time>
      </trkpt>
      <trkpt lat="59.5270628" lon="17.8818671">
        <ele>36.6675</ele>
        <time>2011-01-25T19:30:40Z</time>
      </trkpt>
      <trkpt lat="59.5269927" lon="17.8817216">
        <ele>36.1868</ele>
        <time>2011-01-25T19:30:42Z</time>
      </trkpt>
      <trkpt lat="59.5268506" lon="17.881189">
        <ele>35.2255</ele>
        <time>2011-01-25T19:30:47Z</time>
      </trkpt>
      <trkpt lat="59.5267971" lon="17.8810985">
        <ele>35.7061</ele>
        <time>2011-01-25T19:30:48Z</time>
      </trkpt>
      <trkpt lat="59.5266916" lon="17.8809597">
        <ele>35.7061</ele>
        <time>2011-01-25T19:30:50Z</time>
      </trkpt>
      <trkpt lat="59.5264807" lon="17.880833">
        <ele>35.2255</ele>
        <time>2011-01-25T19:30:55Z</time>
      </trkpt>
      <trkpt lat="59.5264195" lon="17.8808279">
        <ele>35.2255</ele>
        <time>2011-01-25T19:30:57Z</time>
      </trkpt>
      <trkpt lat="59.5263694" lon="17.8808338">
        <ele>35.2255</ele>
        <time>2011-01-25T19:30:59Z</time>
      </trkpt>
      <trkpt lat="59.5262793" lon="17.8808161">
        <ele>36.1868</ele>
        <time>2011-01-25T19:31:03Z</time>
      </trkpt>
      <trkpt lat="59.5261456" lon="17.8808336">
        <ele>35.7061</ele>
        <time>2011-01-25T19:31:07Z</time>
      </trkpt>
      <trkpt lat="59.5259561" lon="17.8808258">
        <ele>34.7449</ele>
        <time>2011-01-25T19:31:11Z</time>
      </trkpt>
      <trkpt lat="59.5258363" lon="17.8807829">
        <ele>34.7449</ele>
        <time>2011-01-25T19:31:13Z</time>
      </trkpt>
      <trkpt lat="59.5256534" lon="17.8807078">
        <ele>34.7449</ele>
        <time>2011-01-25T19:31:17Z</time>
      </trkpt>
      <trkpt lat="59.5254785" lon="17.8806327">
        <ele>36.6675</ele>
        <time>2011-01-25T19:31:22Z</time>
      </trkpt>
      <trkpt lat="59.5252878" lon="17.8805046">
        <ele>37.6287</ele>
        <time>2011-01-25T19:31:29Z</time>
      </trkpt>
      <trkpt lat="59.5253705" lon="17.8803845">
        <ele>39.0707</ele>
        <time>2011-01-25T19:31:34Z</time>
      </trkpt>
      <trkpt lat="59.5254893" lon="17.8802017">
        <ele>40.5128</ele>
        <time>2011-01-25T19:31:39Z</time>
      </trkpt>
      <trkpt lat="59.5255669" lon="17.8800774">
        <ele>40.9934</ele>
        <time>2011-01-25T19:31:43Z</time>
      </trkpt>
      <trkpt lat="59.5256502" lon="17.8798822">
        <ele>40.9934</ele>
        <time>2011-01-25T19:31:48Z</time>
      </trkpt>
      <trkpt lat="59.5256577" lon="17.8798302">
        <ele>41.474</ele>
        <time>2011-01-25T19:31:49Z</time>
      </trkpt>
      <trkpt lat="59.5256953" lon="17.8795242">
        <ele>41.9547</ele>
        <time>2011-01-25T19:31:54Z</time>
      </trkpt>
      <trkpt lat="59.5256811" lon="17.8792693">
        <ele>40.5128</ele>
        <time>2011-01-25T19:31:58Z</time>
      </trkpt>
      <trkpt lat="59.5255528" lon="17.8789922">
        <ele>40.0321</ele>
        <time>2011-01-25T19:32:03Z</time>
      </trkpt>
      <trkpt lat="59.5254493" lon="17.8788731">
        <ele>40.0321</ele>
        <time>2011-01-25T19:32:07Z</time>
      </trkpt>
      <trkpt lat="59.5253171" lon="17.8787084">
        <ele>40.5128</ele>
        <time>2011-01-25T19:32:11Z</time>
      </trkpt>
      <trkpt lat="59.5251971" lon="17.8783913">
        <ele>39.0707</ele>
        <time>2011-01-25T19:32:15Z</time>
      </trkpt>
      <trkpt lat="59.5251227" lon="17.878051">
        <ele>37.6287</ele>
        <time>2011-01-25T19:32:18Z</time>
      </trkpt>
      <trkpt lat="59.5249324" lon="17.8776204">
        <ele>36.1868</ele>
        <time>2011-01-25T19:32:23Z</time>
      </trkpt>
      <trkpt lat="59.5248924" lon="17.8775721">
        <ele>36.6675</ele>
        <time>2011-01-25T19:32:24Z</time>
      </trkpt>
      <trkpt lat="59.5247628" lon="17.8773917">
        <ele>35.2255</ele>
        <time>2011-01-25T19:32:29Z</time>
      </trkpt>
      <trkpt lat="59.5247316" lon="17.8772014">
        <ele>32.3416</ele>
        <time>2011-01-25T19:32:32Z</time>
      </trkpt>
      <trkpt lat="59.5246834" lon="17.8767532">
        <ele>29.4575</ele>
        <time>2011-01-25T19:32:36Z</time>
      </trkpt>
      <trkpt lat="59.524662" lon="17.8766446">
        <ele>28.4962</ele>
        <time>2011-01-25T19:32:37Z</time>
      </trkpt>
      <trkpt lat="59.5246072" lon="17.8762137">
        <ele>27.5349</ele>
        <time>2011-01-25T19:32:41Z</time>
      </trkpt>
      <trkpt lat="59.5245776" lon="17.8756294">
        <ele>27.0543</ele>
        <time>2011-01-25T19:32:46Z</time>
      </trkpt>
      <trkpt lat="59.5245091" lon="17.8754127">
        <ele>27.0543</ele>
        <time>2011-01-25T19:32:48Z</time>
      </trkpt>
      <trkpt lat="59.5242" lon="17.8746695">
        <ele>27.0543</ele>
        <time>2011-01-25T19:32:56Z</time>
      </trkpt>
      <trkpt lat="59.5240363" lon="17.8744307">
        <ele>26.0929</ele>
        <time>2011-01-25T19:33:00Z</time>
      </trkpt>
      <trkpt lat="59.5238596" lon="17.874268">
        <ele>25.1317</ele>
        <time>2011-01-25T19:33:04Z</time>
      </trkpt>
      <trkpt lat="59.5237218" lon="17.8740137">
        <ele>22.7283</ele>
        <time>2011-01-25T19:33:08Z</time>
      </trkpt>
      <trkpt lat="59.5236439" lon="17.8737344">
        <ele>22.7283</ele>
        <time>2011-01-25T19:33:11Z</time>
      </trkpt>
      <trkpt lat="59.5234887" lon="17.8734841">
        <ele>25.1317</ele>
        <time>2011-01-25T19:33:16Z</time>
      </trkpt>
      <trkpt lat="59.523459" lon="17.8734427">
        <ele>25.6123</ele>
        <time>2011-01-25T19:33:17Z</time>
      </trkpt>
      <trkpt lat="59.5232458" lon="17.8731683">
        <ele>30.4188</ele>
        <time>2011-01-25T19:33:23Z</time>
      </trkpt>
      <trkpt lat="59.5230887" lon="17.873005">
        <ele>30.8995</ele>
        <time>2011-01-25T19:33:27Z</time>
      </trkpt>
      <trkpt lat="59.5230661" lon="17.8729666">
        <ele>32.3416</ele>
        <time>2011-01-25T19:33:28Z</time>
      </trkpt>
      <trkpt lat="59.5228868" lon="17.8727966">
        <ele>35.2255</ele>
        <time>2011-01-25T19:33:34Z</time>
      </trkpt>
      <trkpt lat="59.5227636" lon="17.8726674">
        <ele>36.1868</ele>
        <time>2011-01-25T19:33:38Z</time>
      </trkpt>
      <trkpt lat="59.5226473" lon="17.8725782">
        <ele>35.2255</ele>
        <time>2011-01-25T19:33:42Z</time>
      </trkpt>
      <trkpt lat="59.5224854" lon="17.8725185">
        <ele>33.3029</ele>
        <time>2011-01-25T19:33:46Z</time>
      </trkpt>
      <trkpt lat="59.5223454" lon="17.8725053">
        <ele>30.8995</ele>
        <time>2011-01-25T19:33:50Z</time>
      </trkpt>
      <trkpt lat="59.5221865" lon="17.8725166">
        <ele>30.4188</ele>
        <time>2011-01-25T19:33:55Z</time>
      </trkpt>
      <trkpt lat="59.5220834" lon="17.8725812">
        <ele>31.3801</ele>
        <time>2011-01-25T19:33:59Z</time>
      </trkpt>
      <trkpt lat="59.5219637" lon="17.8726412">
        <ele>29.9381</ele>
        <time>2011-01-25T19:34:04Z</time>
      </trkpt>
      <trkpt lat="59.5218038" lon="17.8726936">
        <ele>29.9381</ele>
        <time>2011-01-25T19:34:09Z</time>
      </trkpt>
      <trkpt lat="59.5216625" lon="17.8726978">
        <ele>30.4188</ele>
        <time>2011-01-25T19:34:13Z</time>
      </trkpt>
      <trkpt lat="59.5215207" lon="17.8727392">
        <ele>28.4962</ele>
        <time>2011-01-25T19:34:17Z</time>
      </trkpt>
      <trkpt lat="59.5213017" lon="17.8727554">
        <ele>29.4575</ele>
        <time>2011-01-25T19:34:22Z</time>
      </trkpt>
      <trkpt lat="59.5211924" lon="17.8726465">
        <ele>29.9381</ele>
        <time>2011-01-25T19:34:26Z</time>
      </trkpt>
      <trkpt lat="59.5210432" lon="17.8724861">
        <ele>27.5349</ele>
        <time>2011-01-25T19:34:31Z</time>
      </trkpt>
      <trkpt lat="59.5208967" lon="17.8723788">
        <ele>24.651</ele>
        <time>2011-01-25T19:34:36Z</time>
      </trkpt>
      <trkpt lat="59.520778" lon="17.8723498">
        <ele>24.651</ele>
        <time>2011-01-25T19:34:39Z</time>
      </trkpt>
      <trkpt lat="59.5206142" lon="17.8724682">
        <ele>22.2476</ele>
        <time>2011-01-25T19:34:43Z</time>
      </trkpt>
      <trkpt lat="59.5204561" lon="17.8725942">
        <ele>19.3638</ele>
        <time>2011-01-25T19:34:48Z</time>
      </trkpt>
      <trkpt lat="59.5202812" lon="17.8728289">
        <ele>17.4412</ele>
        <time>2011-01-25T19:34:53Z</time>
      </trkpt>
      <trkpt lat="59.5201609" lon="17.8729801">
        <ele>18.4023</ele>
        <time>2011-01-25T19:34:57Z</time>
      </trkpt>
      <trkpt lat="59.5200168" lon="17.8731362">
        <ele>18.4023</ele>
        <time>2011-01-25T19:35:01Z</time>
      </trkpt>
      <trkpt lat="59.5198366" lon="17.8734495">
        <ele>19.8444</ele>
        <time>2011-01-25T19:35:06Z</time>
      </trkpt>
      <trkpt lat="59.519798" lon="17.8735034">
        <ele>19.8444</ele>
        <time>2011-01-25T19:35:07Z</time>
      </trkpt>
      <trkpt lat="59.5196905" lon="17.8736591">
        <ele>20.8057</ele>
        <time>2011-01-25T19:35:10Z</time>
      </trkpt>
      <trkpt lat="59.5196208" lon="17.8737752">
        <ele>22.7283</ele>
        <time>2011-01-25T19:35:13Z</time>
      </trkpt>
      <trkpt lat="59.5195555" lon="17.873896">
        <ele>23.6896</ele>
        <time>2011-01-25T19:35:17Z</time>
      </trkpt>
      <trkpt lat="59.5194442" lon="17.8740669">
        <ele>25.6123</ele>
        <time>2011-01-25T19:35:22Z</time>
      </trkpt>
      <trkpt lat="59.519368" lon="17.874284">
        <ele>28.0155</ele>
        <time>2011-01-25T19:35:27Z</time>
      </trkpt>
      <trkpt lat="59.5193069" lon="17.8745715">
        <ele>28.0155</ele>
        <time>2011-01-25T19:35:33Z</time>
      </trkpt>
      <trkpt lat="59.519296" lon="17.874626">
        <ele>28.0155</ele>
        <time>2011-01-25T19:35:34Z</time>
      </trkpt>
      <trkpt lat="59.5192671" lon="17.8748054">
        <ele>28.4962</ele>
        <time>2011-01-25T19:35:38Z</time>
      </trkpt>
      <trkpt lat="59.5193049" lon="17.874989">
        <ele>29.9381</ele>
        <time>2011-01-25T19:35:44Z</time>
      </trkpt>
      <trkpt lat="59.5194038" lon="17.8750591">
        <ele>30.8995</ele>
        <time>2011-01-25T19:35:49Z</time>
      </trkpt>
      <trkpt lat="59.5194354" lon="17.8750766">
        <ele>30.4188</ele>
        <time>2011-01-25T19:35:50Z</time>
      </trkpt>
      <trkpt lat="59.5195418" lon="17.8750767">
        <ele>31.3801</ele>
        <time>2011-01-25T19:35:54Z</time>
      </trkpt>
      <trkpt lat="59.5196529" lon="17.8749733">
        <ele>32.8223</ele>
        <time>2011-01-25T19:35:58Z</time>
      </trkpt>
      <trkpt lat="59.5198284" lon="17.8748253">
        <ele>35.7061</ele>
        <time>2011-01-25T19:36:03Z</time>
      </trkpt>
      <trkpt lat="59.5199272" lon="17.8747376">
        <ele>36.6675</ele>
        <time>2011-01-25T19:36:07Z</time>
      </trkpt>
      <trkpt lat="59.5199821" lon="17.8747171">
        <ele>37.1481</ele>
        <time>2011-01-25T19:36:09Z</time>
      </trkpt>
      <trkpt lat="59.5201263" lon="17.8747161">
        <ele>37.6287</ele>
        <time>2011-01-25T19:36:15Z</time>
      </trkpt>
      <trkpt lat="59.5202267" lon="17.874721">
        <ele>40.0321</ele>
        <time>2011-01-25T19:36:20Z</time>
      </trkpt>
      <trkpt lat="59.5203356" lon="17.8747719">
        <ele>43.3966</ele>
        <time>2011-01-25T19:36:26Z</time>
      </trkpt>
      <trkpt lat="59.5204438" lon="17.8747707">
        <ele>45.7999</ele>
        <time>2011-01-25T19:36:31Z</time>
      </trkpt>
      <trkpt lat="59.5205501" lon="17.8747505">
        <ele>48.684</ele>
        <time>2011-01-25T19:36:36Z</time>
      </trkpt>
      <trkpt lat="59.5206656" lon="17.8747047">
        <ele>49.1646</ele>
        <time>2011-01-25T19:36:42Z</time>
      </trkpt>
      <trkpt lat="59.5207375" lon="17.8746709">
        <ele>50.126</ele>
        <time>2011-01-25T19:36:46Z</time>
      </trkpt>
      <trkpt lat="59.5208654" lon="17.8746367">
        <ele>50.6066</ele>
        <time>2011-01-25T19:36:52Z</time>
      </trkpt>
      <trkpt lat="59.5209613" lon="17.8746312">
        <ele>51.5679</ele>
        <time>2011-01-25T19:36:57Z</time>
      </trkpt>
      <trkpt lat="59.5210394" lon="17.8746859">
        <ele>51.5679</ele>
        <time>2011-01-25T19:37:01Z</time>
      </trkpt>
      <trkpt lat="59.5211084" lon="17.8747098">
        <ele>52.5292</ele>
        <time>2011-01-25T19:37:05Z</time>
      </trkpt>
      <trkpt lat="59.5212713" lon="17.8747146">
        <ele>53.0098</ele>
        <time>2011-01-25T19:37:11Z</time>
      </trkpt>
      <trkpt lat="59.5213834" lon="17.8747139">
        <ele>53.9712</ele>
        <time>2011-01-25T19:37:15Z</time>
      </trkpt>
      <trkpt lat="59.5215042" lon="17.8746963">
        <ele>53.9712</ele>
        <time>2011-01-25T19:37:20Z</time>
      </trkpt>
      <trkpt lat="59.5216891" lon="17.8747723">
        <ele>53.0098</ele>
        <time>2011-01-25T19:37:26Z</time>
      </trkpt>
      <trkpt lat="59.5217203" lon="17.874786">
        <ele>53.0098</ele>
        <time>2011-01-25T19:37:27Z</time>
      </trkpt>
      <trkpt lat="59.5219138" lon="17.8749005">
        <ele>52.5292</ele>
        <time>2011-01-25T19:37:32Z</time>
      </trkpt>
      <trkpt lat="59.5220387" lon="17.8749617">
        <ele>52.0486</ele>
        <time>2011-01-25T19:37:36Z</time>
      </trkpt>
      <trkpt lat="59.5221777" lon="17.8749158">
        <ele>52.5292</ele>
        <time>2011-01-25T19:37:41Z</time>
      </trkpt>
      <trkpt lat="59.5223035" lon="17.8747246">
        <ele>54.4518</ele>
        <time>2011-01-25T19:37:46Z</time>
      </trkpt>
      <trkpt lat="59.522389" lon="17.8743679">
        <ele>51.0872</ele>
        <time>2011-01-25T19:37:52Z</time>
      </trkpt>
      <trkpt lat="59.5223195" lon="17.8739917">
        <ele>46.2806</ele>
        <time>2011-01-25T19:37:56Z</time>
      </trkpt>
      <trkpt lat="59.522263" lon="17.8737875">
        <ele>43.8773</ele>
        <time>2011-01-25T19:37:58Z</time>
      </trkpt>
      <trkpt lat="59.5220379" lon="17.8734327">
        <ele>37.6287</ele>
        <time>2011-01-25T19:38:03Z</time>
      </trkpt>
      <trkpt lat="59.5216472" lon="17.8730267">
        <ele>28.0155</ele>
        <time>2011-01-25T19:38:09Z</time>
      </trkpt>
      <trkpt lat="59.5215725" lon="17.8729532">
        <ele>26.5736</ele>
        <time>2011-01-25T19:38:10Z</time>
      </trkpt>
      <trkpt lat="59.521278" lon="17.872529">
        <ele>21.2864</ele>
        <time>2011-01-25T19:38:15Z</time>
      </trkpt>
      <trkpt lat="59.521207" lon="17.8724595">
        <ele>20.8057</ele>
        <time>2011-01-25T19:38:16Z</time>
      </trkpt>
      <trkpt lat="59.5208525" lon="17.8723464">
        <ele>18.8831</ele>
        <time>2011-01-25T19:38:21Z</time>
      </trkpt>
      <trkpt lat="59.5207519" lon="17.872372">
        <ele>18.4023</ele>
        <time>2011-01-25T19:38:23Z</time>
      </trkpt>
      <trkpt lat="59.5206505" lon="17.8724388">
        <ele>17.9218</ele>
        <time>2011-01-25T19:38:25Z</time>
      </trkpt>
      <trkpt lat="59.5205313" lon="17.8725217">
        <ele>16.4797</ele>
        <time>2011-01-25T19:38:29Z</time>
      </trkpt>
      <trkpt lat="59.5203501" lon="17.8727144">
        <ele>21.767</ele>
        <time>2011-01-25T19:38:34Z</time>
      </trkpt>
      <trkpt lat="59.5201833" lon="17.8728543">
        <ele>24.1703</ele>
        <time>2011-01-25T19:38:39Z</time>
      </trkpt>
      <trkpt lat="59.5200901" lon="17.8729916">
        <ele>25.6123</ele>
        <time>2011-01-25T19:38:43Z</time>
      </trkpt>
      <trkpt lat="59.5199824" lon="17.8731293">
        <ele>26.5736</ele>
        <time>2011-01-25T19:38:47Z</time>
      </trkpt>
      <trkpt lat="59.5198216" lon="17.8733744">
        <ele>25.1317</ele>
        <time>2011-01-25T19:38:52Z</time>
      </trkpt>
      <trkpt lat="59.519672" lon="17.8735848">
        <ele>25.1317</ele>
        <time>2011-01-25T19:38:56Z</time>
      </trkpt>
      <trkpt lat="59.519609" lon="17.8736606">
        <ele>25.1317</ele>
        <time>2011-01-25T19:38:58Z</time>
      </trkpt>
      <trkpt lat="59.5194949" lon="17.8738685">
        <ele>25.1317</ele>
        <time>2011-01-25T19:39:04Z</time>
      </trkpt>
      <trkpt lat="59.5193986" lon="17.8740743">
        <ele>26.0929</ele>
        <time>2011-01-25T19:39:09Z</time>
      </trkpt>
      <trkpt lat="59.5193507" lon="17.8742638">
        <ele>27.0543</ele>
        <time>2011-01-25T19:39:14Z</time>
      </trkpt>
      <trkpt lat="59.5193436" lon="17.8743022">
        <ele>27.0543</ele>
        <time>2011-01-25T19:39:15Z</time>
      </trkpt>
      <trkpt lat="59.5193144" lon="17.8744363">
        <ele>25.6123</ele>
        <time>2011-01-25T19:39:19Z</time>
      </trkpt>
      <trkpt lat="59.5192241" lon="17.874684">
        <ele>25.1317</ele>
        <time>2011-01-25T19:39:25Z</time>
      </trkpt>
      <trkpt lat="59.5191235" lon="17.8749689">
        <ele>26.0929</ele>
        <time>2011-01-25T19:39:31Z</time>
      </trkpt>
      <trkpt lat="59.518999" lon="17.8751354">
        <ele>25.6123</ele>
        <time>2011-01-25T19:39:35Z</time>
      </trkpt>
      <trkpt lat="59.5188908" lon="17.8753433">
        <ele>25.6123</ele>
        <time>2011-01-25T19:39:39Z</time>
      </trkpt>
      <trkpt lat="59.5187245" lon="17.8756902">
        <ele>23.6896</ele>
        <time>2011-01-25T19:39:45Z</time>
      </trkpt>
      <trkpt lat="59.5185899" lon="17.8760023">
        <ele>22.7283</ele>
        <time>2011-01-25T19:39:49Z</time>
      </trkpt>
      <trkpt lat="59.5184791" lon="17.876284">
        <ele>23.209</ele>
        <time>2011-01-25T19:39:53Z</time>
      </trkpt>
      <trkpt lat="59.5184288" lon="17.8764721">
        <ele>21.2864</ele>
        <time>2011-01-25T19:39:56Z</time>
      </trkpt>
      <trkpt lat="59.5184638" lon="17.8767476">
        <ele>18.8831</ele>
        <time>2011-01-25T19:40:01Z</time>
      </trkpt>
      <trkpt lat="59.5184884" lon="17.8768342">
        <ele>18.8831</ele>
        <time>2011-01-25T19:40:03Z</time>
      </trkpt>
      <trkpt lat="59.5185411" lon="17.8769911">
        <ele>20.325</ele>
        <time>2011-01-25T19:40:06Z</time>
      </trkpt>
      <trkpt lat="59.5186192" lon="17.8773059">
        <ele>20.8057</ele>
        <time>2011-01-25T19:40:10Z</time>
      </trkpt>
      <trkpt lat="59.518743" lon="17.8775928">
        <ele>22.7283</ele>
        <time>2011-01-25T19:40:15Z</time>
      </trkpt>
      <trkpt lat="59.5187764" lon="17.8777475">
        <ele>24.1703</ele>
        <time>2011-01-25T19:40:18Z</time>
      </trkpt>
      <trkpt lat="59.5188542" lon="17.8779316">
        <ele>24.651</ele>
        <time>2011-01-25T19:40:22Z</time>
      </trkpt>
      <trkpt lat="59.5189633" lon="17.8781766">
        <ele>25.1317</ele>
        <time>2011-01-25T19:40:27Z</time>
      </trkpt>
      <trkpt lat="59.5190535" lon="17.8783773">
        <ele>27.0543</ele>
        <time>2011-01-25T19:40:31Z</time>
      </trkpt>
      <trkpt lat="59.5191609" lon="17.8785761">
        <ele>27.0543</ele>
        <time>2011-01-25T19:40:35Z</time>
      </trkpt>
      <trkpt lat="59.5192484" lon="17.8788363">
        <ele>27.5349</ele>
        <time>2011-01-25T19:40:39Z</time>
      </trkpt>
      <trkpt lat="59.5193436" lon="17.8789668">
        <ele>26.5736</ele>
        <time>2011-01-25T19:40:42Z</time>
      </trkpt>
      <trkpt lat="59.5194864" lon="17.8791144">
        <ele>24.1703</ele>
        <time>2011-01-25T19:40:47Z</time>
      </trkpt>
      <trkpt lat="59.5195036" lon="17.8791322">
        <ele>24.1703</ele>
        <time>2011-01-25T19:40:48Z</time>
      </trkpt>
      <trkpt lat="59.5196135" lon="17.8792316">
        <ele>26.5736</ele>
        <time>2011-01-25T19:40:54Z</time>
      </trkpt>
      <trkpt lat="59.5197262" lon="17.8793269">
        <ele>28.4962</ele>
        <time>2011-01-25T19:40:58Z</time>
      </trkpt>
      <trkpt lat="59.5198379" lon="17.8793899">
        <ele>29.4575</ele>
        <time>2011-01-25T19:41:02Z</time>
      </trkpt>
      <trkpt lat="59.5199911" lon="17.8794106">
        <ele>31.3801</ele>
        <time>2011-01-25T19:41:07Z</time>
      </trkpt>
      <trkpt lat="59.5200892" lon="17.8793811">
        <ele>33.7834</ele>
        <time>2011-01-25T19:41:12Z</time>
      </trkpt>
      <trkpt lat="59.5201968" lon="17.8792714">
        <ele>35.2255</ele>
        <time>2011-01-25T19:41:17Z</time>
      </trkpt>
      <trkpt lat="59.5202155" lon="17.8792429">
        <ele>35.2255</ele>
        <time>2011-01-25T19:41:18Z</time>
      </trkpt>
      <trkpt lat="59.5203315" lon="17.8791472">
        <ele>35.2255</ele>
        <time>2011-01-25T19:41:23Z</time>
      </trkpt>
      <trkpt lat="59.5203703" lon="17.8791161">
        <ele>36.1868</ele>
        <time>2011-01-25T19:41:25Z</time>
      </trkpt>
      <trkpt lat="59.5204157" lon="17.8790792">
        <ele>38.1094</ele>
        <time>2011-01-25T19:41:27Z</time>
      </trkpt>
      <trkpt lat="59.5205551" lon="17.8790835">
        <ele>40.0321</ele>
        <time>2011-01-25T19:41:32Z</time>
      </trkpt>
      <trkpt lat="59.5206257" lon="17.8791086">
        <ele>39.5513</ele>
        <time>2011-01-25T19:41:35Z</time>
      </trkpt>
      <trkpt lat="59.5207099" lon="17.8791631">
        <ele>38.5901</ele>
        <time>2011-01-25T19:41:39Z</time>
      </trkpt>
      <trkpt lat="59.5208022" lon="17.8792635">
        <ele>36.6675</ele>
        <time>2011-01-25T19:41:44Z</time>
      </trkpt>
      <trkpt lat="59.5208884" lon="17.879467">
        <ele>34.2642</ele>
        <time>2011-01-25T19:41:49Z</time>
      </trkpt>
      <trkpt lat="59.5209965" lon="17.8798304">
        <ele>31.8607</ele>
        <time>2011-01-25T19:41:54Z</time>
      </trkpt>
      <trkpt lat="59.5211249" lon="17.8799837">
        <ele>32.3416</ele>
        <time>2011-01-25T19:41:57Z</time>
      </trkpt>
      <trkpt lat="59.521325" lon="17.8803103">
        <ele>31.8607</ele>
        <time>2011-01-25T19:42:02Z</time>
      </trkpt>
      <trkpt lat="59.5215496" lon="17.8805025">
        <ele>27.0543</ele>
        <time>2011-01-25T19:42:06Z</time>
      </trkpt>
      <trkpt lat="59.5216663" lon="17.8805369">
        <ele>26.5736</ele>
        <time>2011-01-25T19:42:08Z</time>
      </trkpt>
      <trkpt lat="59.5218739" lon="17.8806228">
        <ele>27.0543</ele>
        <time>2011-01-25T19:42:12Z</time>
      </trkpt>
      <trkpt lat="59.522062" lon="17.880754">
        <ele>26.0929</ele>
        <time>2011-01-25T19:42:16Z</time>
      </trkpt>
      <trkpt lat="59.5221456" lon="17.8808485">
        <ele>26.5736</ele>
        <time>2011-01-25T19:42:18Z</time>
      </trkpt>
      <trkpt lat="59.5223419" lon="17.8811452">
        <ele>25.6123</ele>
        <time>2011-01-25T19:42:23Z</time>
      </trkpt>
      <trkpt lat="59.5224683" lon="17.8813764">
        <ele>25.1317</ele>
        <time>2011-01-25T19:42:27Z</time>
      </trkpt>
      <trkpt lat="59.5225443" lon="17.8814906">
        <ele>26.5736</ele>
        <time>2011-01-25T19:42:30Z</time>
      </trkpt>
      <trkpt lat="59.522587" lon="17.8815367">
        <ele>26.0929</ele>
        <time>2011-01-25T19:42:35Z</time>
      </trkpt>
      <trkpt lat="59.5225843" lon="17.8815413">
        <ele>26.0929</ele>
        <time>2011-01-25T19:42:36Z</time>
      </trkpt>
    </trkseg>
  </trk>
</gpx>